KLM367 EHAM-VTBS
Flight info
| Callsign | KLM367 |
|---|---|
| Flight time | N/A |
| Altitude | 37000 |
| Route | EDUPO Z739 MISGO DCT DOJOH DCT DODEN DCT NEGIX DCT DINKU L603 BESNI L603 OLETU DCT GOMIG DCT OBUTI DCT TUVAR DCT OKLOP DCT ETIDA DCT EKSOL DCT UDROS DCT BAMUP DCT ROLIN N644 ODILI DCT BARAD M747 SUBUT T923 ERLEV L850 BAKUV N701 LARGI B701 KRS A240 INRAK B449 RANAH L750 MERUN G452 LKA G452 LKN R460 BBN P646 JJS Z12 DOPID P646 TARED DCT WILLA WILLA1C |
| Aircraft | B77W/H-SDE1E2E3FGHIJ2J3J4J5M1RWXY/LB1D1 |
Departure
| Time | 2026-04-17 04:32 |
|---|---|
| Airport | Amsterdam Airport Schiphol (EHAM) |
Arrival
| Time | N/A |
|---|---|
| Airport | Suvarnabhumi Airport (VTBS) |
| Time | Latitude | Longitude | Altitude | Speed | Heading |
|---|---|---|---|---|---|
| 2026-04-17 04:22 | 52.31380 | 4.76738 | 8 ft | 0 kts | 123° |
| 2026-04-17 04:28 | 52.31398 | 4.76693 | 9 ft | 6 kts | 123° |
| 2026-04-17 04:28 | 52.31418 | 4.76636 | 12 ft | 6 kts | 84° |
| 2026-04-17 04:28 | 52.31413 | 4.76605 | 11 ft | 3 kts | 36° |
| 2026-04-17 04:29 | 52.31451 | 4.76657 | 8 ft | 10 kts | 47° |
| 2026-04-17 04:29 | 52.31474 | 4.76790 | 8 ft | 16 kts | 83° |
| 2026-04-17 04:29 | 52.31481 | 4.77013 | 8 ft | 23 kts | 87° |
| 2026-04-17 04:29 | 52.31427 | 4.77280 | 8 ft | 26 kts | 130° |
| 2026-04-17 04:30 | 52.31297 | 4.77482 | 8 ft | 26 kts | 153° |
| 2026-04-17 04:30 | 52.31116 | 4.77498 | 8 ft | 26 kts | 183° |
| 2026-04-17 04:30 | 52.30935 | 4.77478 | 8 ft | 26 kts | 184° |
| 2026-04-17 04:30 | 52.30755 | 4.77463 | 8 ft | 25 kts | 182° |
| 2026-04-17 04:31 | 52.30609 | 4.77511 | 8 ft | 19 kts | 154° |
| 2026-04-17 04:31 | 52.30497 | 4.77606 | 8 ft | 16 kts | 152° |
| 2026-04-17 04:31 | 52.30407 | 4.77600 | 8 ft | 18 kts | 215° |
| 2026-04-17 04:31 | 52.30179 | 4.77033 | 6 ft | 101 kts | 238° |
| 2026-04-17 04:32 | 52.29651 | 4.75687 | 29 ft | 177 kts | 235° |
| 2026-04-17 04:32 | 52.28919 | 4.73793 | 546 ft | 200 kts | 237° |
| 2026-04-17 04:32 | 52.28183 | 4.71815 | 989 ft | 213 kts | 238° |
| 2026-04-17 04:32 | 52.27390 | 4.69822 | 1494 ft | 210 kts | 233° |
| 2026-04-17 04:33 | 52.26215 | 4.68438 | 1957 ft | 215 kts | 198° |
| 2026-04-17 04:33 | 52.24718 | 4.68474 | 2433 ft | 224 kts | 165° |
| 2026-04-17 04:33 | 52.23327 | 4.69669 | 2882 ft | 233 kts | 140° |
| 2026-04-17 04:33 | 52.22322 | 4.71899 | 3300 ft | 265 kts | 122° |
| 2026-04-17 04:34 | 52.20561 | 4.77330 | 5000 ft | 276 kts | 119° |
| 2026-04-17 04:34 | 52.19661 | 4.80100 | 5674 ft | 277 kts | 122° |
| 2026-04-17 04:34 | 52.18701 | 4.82853 | 6376 ft | 281 kts | 123° |
| 2026-04-17 04:35 | 52.17829 | 4.85713 | 7003 ft | 287 kts | 106° |
| 2026-04-17 04:35 | 52.17743 | 4.88975 | 7684 ft | 294 kts | 82° |
| 2026-04-17 04:35 | 52.18151 | 4.92276 | 8413 ft | 301 kts | 77° |
| 2026-04-17 04:35 | 52.18693 | 4.95603 | 9087 ft | 305 kts | 75° |
| 2026-04-17 04:36 | 52.19288 | 4.98931 | 9782 ft | 307 kts | 73° |
| 2026-04-17 04:36 | 52.19917 | 5.02237 | 10427 ft | 312 kts | 72° |
| 2026-04-17 04:36 | 52.20614 | 5.05817 | 10914 ft | 347 kts | 72° |
| 2026-04-17 04:36 | 52.21371 | 5.09676 | 11673 ft | 363 kts | 72° |
| 2026-04-17 04:37 | 52.22146 | 5.13629 | 12416 ft | 368 kts | 72° |
| 2026-04-17 04:37 | 52.22929 | 5.17620 | 13096 ft | 372 kts | 72° |
| 2026-04-17 04:37 | 52.23694 | 5.21667 | 13752 ft | 375 kts | 77° |
| 2026-04-17 04:37 | 52.23881 | 5.25898 | 14354 ft | 376 kts | 99° |
| 2026-04-17 04:38 | 52.23151 | 5.29957 | 14937 ft | 374 kts | 120° |
| 2026-04-17 04:38 | 52.21759 | 5.33547 | 15532 ft | 376 kts | 128° |
| 2026-04-17 04:38 | 52.20195 | 5.37007 | 16084 ft | 381 kts | 130° |
| 2026-04-17 04:38 | 52.18600 | 5.40386 | 16660 ft | 384 kts | 131° |
| 2026-04-17 04:39 | 52.17509 | 5.42661 | 17008 ft | 385 kts | 131° |
| 2026-04-17 04:39 | 52.15857 | 5.46124 | 17548 ft | 389 kts | 131° |
| 2026-04-17 04:39 | 52.14170 | 5.49681 | 18115 ft | 393 kts | 130° |
| 2026-04-17 04:39 | 52.12497 | 5.53237 | 18646 ft | 397 kts | 130° |
| 2026-04-17 04:40 | 52.10829 | 5.56833 | 19123 ft | 401 kts | 129° |
| 2026-04-17 04:40 | 52.09179 | 5.60532 | 19603 ft | 405 kts | 128° |
| 2026-04-17 04:40 | 52.07547 | 5.64283 | 20082 ft | 408 kts | 128° |
| 2026-04-17 04:40 | 52.05934 | 5.68023 | 20566 ft | 411 kts | 128° |
| 2026-04-17 04:41 | 52.04182 | 5.71698 | 21048 ft | 413 kts | 133° |
| 2026-04-17 04:41 | 52.02311 | 5.75272 | 21533 ft | 417 kts | 134° |
| 2026-04-17 04:41 | 52.00375 | 5.78810 | 22020 ft | 420 kts | 135° |
| 2026-04-17 04:41 | 51.98395 | 5.82298 | 22519 ft | 422 kts | 137° |
| 2026-04-17 04:42 | 51.96358 | 5.85746 | 22986 ft | 426 kts | 136° |
| 2026-04-17 04:42 | 51.94357 | 5.89329 | 23432 ft | 431 kts | 135° |
| 2026-04-17 04:42 | 51.92373 | 5.93003 | 23860 ft | 434 kts | 134° |
| 2026-04-17 04:42 | 51.90396 | 5.96713 | 24256 ft | 435 kts | 134° |
| 2026-04-17 04:43 | 51.88417 | 6.00447 | 24673 ft | 437 kts | 134° |
| 2026-04-17 04:43 | 51.86461 | 6.04155 | 25099 ft | 441 kts | 133° |
| 2026-04-17 04:43 | 51.84475 | 6.07973 | 25523 ft | 445 kts | 134° |
| 2026-04-17 04:43 | 51.82447 | 6.11783 | 25949 ft | 448 kts | 134° |
| 2026-04-17 04:44 | 51.80391 | 6.15584 | 26360 ft | 451 kts | 135° |
| 2026-04-17 04:44 | 51.78311 | 6.19396 | 26764 ft | 453 kts | 135° |
| 2026-04-17 04:44 | 51.76192 | 6.23169 | 27180 ft | 455 kts | 136° |
| 2026-04-17 04:44 | 51.74060 | 6.26962 | 27575 ft | 458 kts | 135° |
| 2026-04-17 04:45 | 51.71934 | 6.30809 | 27979 ft | 462 kts | 135° |
| 2026-04-17 04:45 | 51.69795 | 6.34701 | 28394 ft | 465 kts | 135° |
| 2026-04-17 04:45 | 51.67647 | 6.38618 | 28782 ft | 467 kts | 135° |
| 2026-04-17 04:45 | 51.65487 | 6.42561 | 29169 ft | 470 kts | 135° |
| 2026-04-17 04:46 | 51.63321 | 6.46522 | 29562 ft | 472 kts | 135° |
| 2026-04-17 04:46 | 51.61147 | 6.50500 | 29943 ft | 475 kts | 135° |
| 2026-04-17 04:46 | 51.58959 | 6.54497 | 30306 ft | 478 kts | 135° |
| 2026-04-17 04:46 | 51.56755 | 6.58520 | 30665 ft | 480 kts | 135° |
| 2026-04-17 04:47 | 51.54537 | 6.62562 | 31024 ft | 482 kts | 135° |
| 2026-04-17 04:47 | 51.52294 | 6.66587 | 31391 ft | 485 kts | 135° |
| 2026-04-17 04:47 | 51.50020 | 6.70625 | 31768 ft | 489 kts | 136° |
| 2026-04-17 04:47 | 51.47730 | 6.74675 | 32129 ft | 492 kts | 136° |
| 2026-04-17 04:48 | 51.45421 | 6.78749 | 32503 ft | 495 kts | 136° |
| 2026-04-17 04:48 | 51.43099 | 6.82845 | 32856 ft | 497 kts | 136° |
| 2026-04-17 04:48 | 51.40790 | 6.86976 | 33229 ft | 499 kts | 135° |
| 2026-04-17 04:48 | 51.38438 | 6.91081 | 33585 ft | 500 kts | 138° |
| 2026-04-17 04:49 | 51.35979 | 6.95034 | 33945 ft | 502 kts | 140° |
| 2026-04-17 04:49 | 51.33451 | 6.98920 | 34279 ft | 505 kts | 140° |
| 2026-04-17 04:49 | 51.30925 | 7.02737 | 34608 ft | 506 kts | 141° |
| 2026-04-17 04:49 | 51.28348 | 7.06596 | 34967 ft | 509 kts | 141° |
| 2026-04-17 04:50 | 51.25761 | 7.10495 | 35286 ft | 512 kts | 140° |
| 2026-04-17 04:50 | 51.23175 | 7.14425 | 35633 ft | 515 kts | 140° |
| 2026-04-17 04:50 | 51.20581 | 7.18372 | 36000 ft | 519 kts | 140° |
| 2026-04-17 04:50 | 51.17958 | 7.22362 | 36325 ft | 522 kts | 140° |
| 2026-04-17 04:51 | 51.15314 | 7.26377 | 36675 ft | 526 kts | 140° |
| 2026-04-17 04:51 | 51.12671 | 7.30428 | 36937 ft | 530 kts | 139° |
| 2026-04-17 04:51 | 51.10012 | 7.34539 | 37137 ft | 535 kts | 139° |
| 2026-04-17 04:51 | 51.07341 | 7.38685 | 37214 ft | 538 kts | 139° |
| 2026-04-17 04:52 | 51.01990 | 7.46955 | 37233 ft | 534 kts | 140° |
| 2026-04-17 04:52 | 50.96642 | 7.55048 | 37239 ft | 529 kts | 140° |
| 2026-04-17 04:53 | 50.91296 | 7.63085 | 37245 ft | 530 kts | 140° |
| 2026-04-17 04:55 | 50.69893 | 7.95114 | 37213 ft | 530 kts | 140° |
| 2026-04-17 04:55 | 50.64532 | 8.03100 | 37210 ft | 530 kts | 140° |
| 2026-04-17 04:56 | 50.59143 | 8.11056 | 37207 ft | 531 kts | 137° |
| 2026-04-17 04:56 | 50.54408 | 8.20007 | 37223 ft | 534 kts | 130° |
| 2026-04-17 04:57 | 50.49923 | 8.29346 | 37225 ft | 535 kts | 130° |
| 2026-04-17 04:57 | 50.45418 | 8.38530 | 37236 ft | 534 kts | 131° |
| 2026-04-17 04:58 | 50.40791 | 8.47625 | 37233 ft | 533 kts | 132° |
| 2026-04-17 04:58 | 50.36037 | 8.56522 | 37228 ft | 531 kts | 135° |
| 2026-04-17 04:59 | 50.31334 | 8.64462 | 37229 ft | 531 kts | 137° |
| 2026-04-17 04:59 | 50.26238 | 8.72842 | 37233 ft | 531 kts | 137° |
| 2026-04-17 05:00 | 50.21143 | 8.81177 | 37234 ft | 530 kts | 137° |
| 2026-04-17 05:00 | 50.16048 | 8.89494 | 37234 ft | 530 kts | 137° |
| 2026-04-17 05:01 | 50.11021 | 8.97815 | 37233 ft | 530 kts | 136° |
| 2026-04-17 05:01 | 50.05996 | 9.06239 | 37234 ft | 531 kts | 136° |
| 2026-04-17 05:02 | 50.00929 | 9.14601 | 37211 ft | 530 kts | 137° |
| 2026-04-17 05:02 | 49.95771 | 9.22949 | 37236 ft | 541 kts | 135° |
| 2026-04-17 05:03 | 49.90549 | 9.31440 | 37245 ft | 543 kts | 134° |
| 2026-04-17 05:03 | 49.85353 | 9.39868 | 37227 ft | 539 kts | 135° |
| 2026-04-17 05:04 | 49.80173 | 9.48249 | 37229 ft | 538 kts | 135° |
| 2026-04-17 05:04 | 49.75012 | 9.56575 | 37239 ft | 541 kts | 135° |
| 2026-04-17 05:05 | 49.69786 | 9.64977 | 37237 ft | 542 kts | 135° |
| 2026-04-17 05:05 | 49.64565 | 9.73345 | 37240 ft | 540 kts | 135° |
| 2026-04-17 05:06 | 49.59348 | 9.81682 | 37239 ft | 540 kts | 135° |
| 2026-04-17 05:06 | 49.54145 | 9.90032 | 37237 ft | 541 kts | 134° |
| 2026-04-17 05:07 | 49.48964 | 9.98449 | 37241 ft | 542 kts | 134° |
| 2026-04-17 05:07 | 49.43727 | 10.06786 | 37239 ft | 541 kts | 135° |
| 2026-04-17 05:08 | 49.38481 | 10.15062 | 37237 ft | 540 kts | 135° |
| 2026-04-17 05:08 | 49.33225 | 10.23321 | 37248 ft | 541 kts | 135° |
| 2026-04-17 05:09 | 49.27959 | 10.31569 | 37251 ft | 541 kts | 135° |
| 2026-04-17 05:09 | 49.22679 | 10.39792 | 37253 ft | 541 kts | 135° |
| 2026-04-17 05:10 | 49.17363 | 10.47829 | 37253 ft | 540 kts | 136° |
| 2026-04-17 05:10 | 49.11896 | 10.55720 | 37260 ft | 540 kts | 137° |
| 2026-04-17 05:11 | 49.06457 | 10.63662 | 37265 ft | 541 kts | 136° |
| 2026-04-17 05:11 | 49.01127 | 10.71769 | 37272 ft | 541 kts | 136° |
| 2026-04-17 05:12 | 48.95737 | 10.79759 | 37272 ft | 541 kts | 136° |
| 2026-04-17 05:12 | 48.90234 | 10.87571 | 37260 ft | 541 kts | 137° |
| 2026-04-17 05:13 | 48.84784 | 10.95463 | 37250 ft | 541 kts | 136° |
| 2026-04-17 05:13 | 48.79379 | 11.03428 | 37239 ft | 541 kts | 136° |
| 2026-04-17 05:14 | 48.74012 | 11.11342 | 37236 ft | 541 kts | 136° |
| 2026-04-17 05:14 | 48.68587 | 11.19230 | 37235 ft | 541 kts | 137° |
| 2026-04-17 05:15 | 48.63162 | 11.27127 | 37231 ft | 541 kts | 131° |
| 2026-04-17 05:15 | 48.58971 | 11.35244 | 37247 ft | 541 kts | 125° |
| 2026-04-17 05:16 | 48.54599 | 11.44532 | 37241 ft | 542 kts | 124° |
| 2026-04-17 05:16 | 48.50217 | 11.53682 | 37237 ft | 541 kts | 126° |
| 2026-04-17 05:17 | 48.45804 | 11.62858 | 37221 ft | 540 kts | 118° |
| 2026-04-17 05:17 | 48.42607 | 11.73095 | 37249 ft | 540 kts | 111° |
| 2026-04-17 05:18 | 48.39742 | 11.83542 | 37233 ft | 540 kts | 110° |
| 2026-04-17 05:18 | 48.36842 | 11.93950 | 37231 ft | 538 kts | 111° |
| 2026-04-17 05:19 | 48.33846 | 12.04212 | 37239 ft | 539 kts | 112° |
| 2026-04-17 05:19 | 48.30722 | 12.14495 | 37247 ft | 541 kts | 113° |
| 2026-04-17 05:20 | 48.27568 | 12.24755 | 37247 ft | 541 kts | 113° |
| 2026-04-17 05:20 | 48.24433 | 12.35012 | 37257 ft | 540 kts | 112° |
| 2026-04-17 05:21 | 48.21378 | 12.45234 | 37259 ft | 541 kts | 112° |
| 2026-04-17 05:21 | 48.18278 | 12.55510 | 37265 ft | 542 kts | 113° |
| 2026-04-17 05:22 | 48.15105 | 12.65756 | 37266 ft | 542 kts | 113° |
| 2026-04-17 05:22 | 48.11523 | 12.75673 | 37272 ft | 543 kts | 123° |
| 2026-04-17 05:23 | 48.07198 | 12.84751 | 37271 ft | 544 kts | 126° |
| 2026-04-17 05:23 | 48.02720 | 12.93881 | 37262 ft | 545 kts | 125° |
| 2026-04-17 05:24 | 47.98324 | 13.03080 | 37265 ft | 544 kts | 124° |
| 2026-04-17 05:24 | 47.94010 | 13.12350 | 37264 ft | 543 kts | 123° |
| 2026-04-17 05:25 | 47.90443 | 13.20069 | 37264 ft | 544 kts | 123° |
| 2026-04-17 05:25 | 47.86127 | 13.29341 | 37265 ft | 545 kts | 124° |
| 2026-04-17 05:26 | 47.81742 | 13.38544 | 37260 ft | 544 kts | 124° |
| 2026-04-17 05:26 | 47.77348 | 13.47703 | 37272 ft | 544 kts | 124° |
| 2026-04-17 05:27 | 47.72994 | 13.56895 | 37265 ft | 543 kts | 123° |
| 2026-04-17 05:27 | 47.68679 | 13.66102 | 37298 ft | 544 kts | 123° |
| 2026-04-17 05:28 | 47.64299 | 13.75307 | 37270 ft | 546 kts | 124° |
| 2026-04-17 05:28 | 47.59897 | 13.84398 | 37285 ft | 545 kts | 124° |
| 2026-04-17 05:29 | 47.55469 | 13.93495 | 37270 ft | 543 kts | 124° |
| 2026-04-17 05:29 | 47.51073 | 14.02606 | 37288 ft | 545 kts | 123° |
| 2026-04-17 05:30 | 47.46706 | 14.11789 | 37288 ft | 546 kts | 124° |
| 2026-04-17 05:30 | 47.42282 | 14.20911 | 37286 ft | 545 kts | 124° |
| 2026-04-17 05:31 | 47.37838 | 14.29959 | 37273 ft | 542 kts | 124° |
| 2026-04-17 05:31 | 47.33432 | 14.38900 | 37290 ft | 543 kts | 124° |
| 2026-04-17 05:32 | 47.28977 | 14.47918 | 37292 ft | 545 kts | 124° |
| 2026-04-17 05:32 | 47.24512 | 14.56939 | 37276 ft | 544 kts | 124° |
| 2026-04-17 05:33 | 47.20065 | 14.65909 | 37277 ft | 542 kts | 124° |
| 2026-04-17 05:33 | 47.15610 | 14.74871 | 37298 ft | 544 kts | 124° |
| 2026-04-17 05:34 | 47.11134 | 14.83858 | 37299 ft | 544 kts | 124° |
| 2026-04-17 05:34 | 47.06664 | 14.92814 | 37284 ft | 543 kts | 124° |
| 2026-04-17 05:35 | 47.02233 | 15.01679 | 37271 ft | 543 kts | 124° |
| 2026-04-17 05:35 | 46.97754 | 15.10615 | 37247 ft | 544 kts | 124° |
| 2026-04-17 05:36 | 46.93266 | 15.19546 | 37227 ft | 544 kts | 124° |
| 2026-04-17 05:36 | 46.88781 | 15.28449 | 37236 ft | 543 kts | 125° |
| 2026-04-17 05:37 | 46.84296 | 15.37331 | 37239 ft | 543 kts | 125° |
| 2026-04-17 05:37 | 46.79801 | 15.46220 | 37242 ft | 544 kts | 124° |
| 2026-04-17 05:38 | 46.75307 | 15.55089 | 37233 ft | 543 kts | 125° |
| 2026-04-17 05:38 | 46.70818 | 15.63929 | 37235 ft | 542 kts | 125° |
| 2026-04-17 05:39 | 46.66354 | 15.72706 | 37240 ft | 542 kts | 125° |
| 2026-04-17 05:39 | 46.61831 | 15.81492 | 37236 ft | 543 kts | 126° |
| 2026-04-17 05:40 | 46.57252 | 15.90208 | 37231 ft | 542 kts | 126° |
| 2026-04-17 05:40 | 46.52680 | 15.98920 | 37228 ft | 541 kts | 125° |
| 2026-04-17 05:41 | 46.48177 | 16.07669 | 37232 ft | 541 kts | 125° |
| 2026-04-17 05:41 | 46.43684 | 16.16427 | 37228 ft | 541 kts | 125° |
| 2026-04-17 05:42 | 46.39131 | 16.25112 | 37221 ft | 541 kts | 126° |
| 2026-04-17 05:42 | 46.34770 | 16.33945 | 37223 ft | 538 kts | 120° |
| 2026-04-17 05:43 | 46.30941 | 16.43176 | 37221 ft | 538 kts | 118° |
| 2026-04-17 05:43 | 46.27142 | 16.52501 | 37218 ft | 538 kts | 118° |
| 2026-04-17 05:44 | 46.23262 | 16.61733 | 37215 ft | 537 kts | 120° |
| 2026-04-17 05:44 | 46.19339 | 16.70891 | 37209 ft | 536 kts | 120° |
| 2026-04-17 05:45 | 46.15404 | 16.80049 | 37208 ft | 537 kts | 120° |
| 2026-04-17 05:45 | 46.11415 | 16.89149 | 37214 ft | 537 kts | 121° |
| 2026-04-17 05:46 | 46.07400 | 16.98203 | 37207 ft | 536 kts | 121° |
| 2026-04-17 05:46 | 46.03452 | 17.07292 | 37203 ft | 535 kts | 120° |
| 2026-04-17 05:47 | 45.99532 | 17.16401 | 37201 ft | 535 kts | 120° |
| 2026-04-17 05:47 | 45.95549 | 17.25462 | 37203 ft | 535 kts | 121° |
| 2026-04-17 05:48 | 45.91549 | 17.34477 | 37203 ft | 535 kts | 121° |
| 2026-04-17 05:48 | 45.87571 | 17.43430 | 37201 ft | 535 kts | 121° |
| 2026-04-17 05:49 | 45.83578 | 17.52422 | 37199 ft | 535 kts | 121° |
| 2026-04-17 05:49 | 45.79583 | 17.61426 | 37199 ft | 535 kts | 121° |
| 2026-04-17 05:50 | 45.75601 | 17.70409 | 37194 ft | 534 kts | 121° |
| 2026-04-17 05:50 | 45.71626 | 17.79387 | 37193 ft | 533 kts | 121° |
| 2026-04-17 05:51 | 45.67618 | 17.88342 | 37190 ft | 534 kts | 122° |
| 2026-04-17 05:51 | 45.63563 | 17.97244 | 37190 ft | 533 kts | 122° |
| 2026-04-17 05:52 | 45.59514 | 18.06113 | 37183 ft | 533 kts | 122° |
| 2026-04-17 05:52 | 45.55495 | 18.14920 | 37188 ft | 532 kts | 122° |
| 2026-04-17 05:53 | 45.51456 | 18.23783 | 37183 ft | 533 kts | 122° |
| 2026-04-17 05:53 | 45.47417 | 18.32646 | 37178 ft | 533 kts | 122° |
| 2026-04-17 05:54 | 45.43379 | 18.41511 | 37172 ft | 532 kts | 122° |
| 2026-04-17 05:54 | 45.39354 | 18.50354 | 37172 ft | 532 kts | 122° |
| 2026-04-17 05:55 | 45.35356 | 18.59148 | 37168 ft | 532 kts | 122° |
| 2026-04-17 05:55 | 45.31312 | 18.67954 | 37165 ft | 532 kts | 123° |
| 2026-04-17 05:56 | 45.27219 | 18.76709 | 37163 ft | 531 kts | 123° |
| 2026-04-17 05:56 | 45.23130 | 18.85432 | 37164 ft | 531 kts | 123° |
| 2026-04-17 05:57 | 45.19049 | 18.94151 | 37169 ft | 530 kts | 123° |
| 2026-04-17 05:57 | 45.14980 | 19.02858 | 37178 ft | 529 kts | 123° |
| 2026-04-17 05:58 | 45.10970 | 19.11590 | 37178 ft | 529 kts | 121° |
| 2026-04-17 05:59 | 45.05563 | 19.25124 | 37176 ft | 528 kts | 118° |
| 2026-04-17 05:59 | 45.02009 | 19.34214 | 37175 ft | 529 kts | 119° |
| 2026-04-17 06:00 | 44.98393 | 19.43267 | 37177 ft | 529 kts | 120° |
| 2026-04-17 06:00 | 44.94703 | 19.52260 | 37172 ft | 529 kts | 120° |
| 2026-04-17 06:01 | 44.91006 | 19.61224 | 37175 ft | 528 kts | 120° |
| 2026-04-17 06:01 | 44.87319 | 19.70169 | 37167 ft | 528 kts | 120° |
| 2026-04-17 06:02 | 44.83633 | 19.79124 | 37169 ft | 528 kts | 120° |
| 2026-04-17 06:02 | 44.79955 | 19.88081 | 37165 ft | 528 kts | 120° |
| 2026-04-17 06:03 | 44.76288 | 19.97027 | 37161 ft | 527 kts | 120° |
| 2026-04-17 06:03 | 44.72622 | 20.05866 | 37156 ft | 526 kts | 121° |
| 2026-04-17 06:04 | 44.68892 | 20.14715 | 37159 ft | 526 kts | 121° |
| 2026-04-17 06:04 | 44.65164 | 20.23551 | 37156 ft | 526 kts | 121° |
| 2026-04-17 06:05 | 44.61437 | 20.32394 | 37162 ft | 525 kts | 121° |
| 2026-04-17 06:05 | 44.57723 | 20.41215 | 37169 ft | 525 kts | 121° |
| 2026-04-17 06:06 | 44.54017 | 20.50019 | 37162 ft | 524 kts | 121° |
| 2026-04-17 06:06 | 44.50318 | 20.58804 | 37159 ft | 523 kts | 121° |
| 2026-04-17 06:07 | 44.46645 | 20.67512 | 37155 ft | 522 kts | 121° |
| 2026-04-17 06:07 | 44.42949 | 20.76257 | 37156 ft | 521 kts | 121° |
| 2026-04-17 06:08 | 44.39253 | 20.84981 | 37152 ft | 521 kts | 121° |
| 2026-04-17 06:08 | 44.35519 | 20.93671 | 37148 ft | 520 kts | 122° |
| 2026-04-17 06:09 | 44.31731 | 21.02272 | 37147 ft | 520 kts | 122° |
| 2026-04-17 06:09 | 44.27984 | 21.10888 | 37141 ft | 519 kts | 121° |
| 2026-04-17 06:10 | 44.24264 | 21.19519 | 37145 ft | 519 kts | 121° |
| 2026-04-17 06:10 | 44.20543 | 21.28140 | 37145 ft | 518 kts | 121° |
| 2026-04-17 06:11 | 44.16795 | 21.36700 | 37142 ft | 517 kts | 122° |
| 2026-04-17 06:11 | 44.13008 | 21.45134 | 37144 ft | 517 kts | 122° |
| 2026-04-17 06:12 | 44.09186 | 21.53601 | 37136 ft | 517 kts | 122° |
| 2026-04-17 06:12 | 44.05355 | 21.62059 | 37129 ft | 515 kts | 122° |
| 2026-04-17 06:13 | 44.01521 | 21.70494 | 37128 ft | 514 kts | 122° |
| 2026-04-17 06:13 | 43.97720 | 21.78832 | 37127 ft | 514 kts | 122° |
| 2026-04-17 06:14 | 43.93887 | 21.87217 | 37127 ft | 515 kts | 122° |
| 2026-04-17 06:14 | 43.90667 | 21.94245 | 37126 ft | 514 kts | 122° |
| 2026-04-17 06:15 | 43.86857 | 22.02559 | 37131 ft | 513 kts | 122° |
| 2026-04-17 06:15 | 43.83025 | 22.10915 | 37132 ft | 513 kts | 122° |
| 2026-04-17 06:16 | 43.79136 | 22.19234 | 37130 ft | 514 kts | 123° |
| 2026-04-17 06:16 | 43.75208 | 22.27513 | 37125 ft | 514 kts | 123° |
| 2026-04-17 06:17 | 43.71341 | 22.35818 | 37129 ft | 513 kts | 123° |
| 2026-04-17 06:17 | 43.67930 | 22.44458 | 37132 ft | 513 kts | 105° |
| 2026-04-17 06:18 | 43.66894 | 22.54149 | 37170 ft | 516 kts | 94° |
| 2026-04-17 06:18 | 43.66384 | 22.64045 | 37130 ft | 516 kts | 94° |
| 2026-04-17 06:19 | 43.65748 | 22.73898 | 37114 ft | 514 kts | 96° |
| 2026-04-17 06:19 | 43.64946 | 22.83712 | 37126 ft | 515 kts | 97° |
| 2026-04-17 06:20 | 43.64028 | 22.93541 | 37132 ft | 517 kts | 97° |
| 2026-04-17 06:20 | 43.63074 | 23.03380 | 37126 ft | 517 kts | 97° |
| 2026-04-17 06:21 | 43.62119 | 23.13204 | 37128 ft | 516 kts | 97° |
| 2026-04-17 06:21 | 43.61164 | 23.23017 | 37126 ft | 517 kts | 97° |
| 2026-04-17 06:22 | 43.60206 | 23.32870 | 37127 ft | 518 kts | 97° |
| 2026-04-17 06:22 | 43.59252 | 23.42711 | 37122 ft | 517 kts | 97° |
| 2026-04-17 06:23 | 43.58307 | 23.52484 | 37124 ft | 517 kts | 98° |
| 2026-04-17 06:23 | 43.57359 | 23.62305 | 37135 ft | 518 kts | 97° |
| 2026-04-17 06:24 | 43.56409 | 23.72159 | 37131 ft | 519 kts | 97° |
| 2026-04-17 06:24 | 43.55461 | 23.82015 | 37122 ft | 518 kts | 97° |
| 2026-04-17 06:25 | 43.54513 | 23.91860 | 37124 ft | 517 kts | 98° |
| 2026-04-17 06:25 | 43.53567 | 24.01703 | 37128 ft | 518 kts | 98° |
| 2026-04-17 06:26 | 43.52556 | 24.11550 | 37126 ft | 519 kts | 98° |
| 2026-04-17 06:26 | 43.51498 | 24.21378 | 37127 ft | 518 kts | 99° |
| 2026-04-17 06:27 | 43.50442 | 24.31136 | 37123 ft | 518 kts | 99° |
| 2026-04-17 06:27 | 43.49378 | 24.40956 | 37127 ft | 519 kts | 99° |
| 2026-04-17 06:28 | 43.48353 | 24.50798 | 37123 ft | 519 kts | 98° |
| 2026-04-17 06:28 | 43.47385 | 24.60657 | 37123 ft | 519 kts | 98° |
| 2026-04-17 06:29 | 43.46353 | 24.70485 | 37125 ft | 519 kts | 98° |
| 2026-04-17 06:29 | 43.45295 | 24.80306 | 37125 ft | 519 kts | 99° |
| 2026-04-17 06:30 | 43.44228 | 24.90139 | 37121 ft | 519 kts | 99° |
| 2026-04-17 06:30 | 43.43158 | 24.99969 | 37125 ft | 519 kts | 99° |
| 2026-04-17 06:31 | 43.42088 | 25.09796 | 37123 ft | 519 kts | 99° |
| 2026-04-17 06:31 | 43.40959 | 25.19545 | 37128 ft | 519 kts | 99° |
| 2026-04-17 06:32 | 43.39778 | 25.29344 | 37122 ft | 519 kts | 99° |
| 2026-04-17 06:32 | 43.38663 | 25.39152 | 37123 ft | 520 kts | 99° |
| 2026-04-17 06:33 | 43.37577 | 25.48999 | 37123 ft | 520 kts | 99° |
| 2026-04-17 06:33 | 43.36492 | 25.58813 | 37123 ft | 519 kts | 99° |
| 2026-04-17 06:34 | 43.35331 | 25.68612 | 37130 ft | 519 kts | 100° |
| 2026-04-17 06:34 | 43.34147 | 25.78350 | 37129 ft | 520 kts | 100° |
| 2026-04-17 06:35 | 43.32949 | 25.88143 | 37128 ft | 520 kts | 100° |
| 2026-04-17 06:35 | 43.31749 | 25.97941 | 37124 ft | 520 kts | 100° |
| 2026-04-17 06:36 | 43.30609 | 26.07747 | 37123 ft | 520 kts | 99° |
| 2026-04-17 06:36 | 43.29486 | 26.17555 | 37125 ft | 520 kts | 99° |
| 2026-04-17 06:37 | 43.28300 | 26.27352 | 37122 ft | 520 kts | 100° |
| 2026-04-17 06:37 | 43.27101 | 26.37143 | 37130 ft | 520 kts | 100° |
| 2026-04-17 06:38 | 43.25898 | 26.46936 | 37127 ft | 520 kts | 100° |
| 2026-04-17 06:38 | 43.24706 | 26.56659 | 37126 ft | 520 kts | 100° |
| 2026-04-17 06:39 | 43.23506 | 26.66442 | 37128 ft | 520 kts | 100° |
| 2026-04-17 06:39 | 43.22244 | 26.76215 | 37125 ft | 519 kts | 101° |
| 2026-04-17 06:40 | 43.20940 | 26.85964 | 37131 ft | 519 kts | 101° |
| 2026-04-17 06:40 | 43.19661 | 26.95716 | 37129 ft | 520 kts | 99° |
| 2026-04-17 06:41 | 43.18622 | 27.05455 | 37131 ft | 520 kts | 98° |
| 2026-04-17 06:41 | 43.17591 | 27.15271 | 37130 ft | 520 kts | 99° |
| 2026-04-17 06:42 | 43.16532 | 27.25076 | 37136 ft | 520 kts | 99° |
| 2026-04-17 06:42 | 43.15454 | 27.34884 | 37129 ft | 520 kts | 99° |
| 2026-04-17 06:43 | 43.14302 | 27.44608 | 37128 ft | 520 kts | 100° |
| 2026-04-17 06:43 | 43.13122 | 27.54367 | 37128 ft | 519 kts | 100° |
| 2026-04-17 06:44 | 43.12009 | 27.64143 | 37134 ft | 520 kts | 99° |
| 2026-04-17 06:44 | 43.10938 | 27.73925 | 37126 ft | 520 kts | 99° |
| 2026-04-17 06:45 | 43.09819 | 27.83704 | 37130 ft | 519 kts | 100° |
| 2026-04-17 06:45 | 43.08649 | 27.93458 | 37129 ft | 519 kts | 100° |
| 2026-04-17 06:46 | 43.07470 | 28.03204 | 37132 ft | 519 kts | 100° |
| 2026-04-17 06:46 | 43.06288 | 28.12959 | 37134 ft | 519 kts | 100° |
| 2026-04-17 06:47 | 43.05107 | 28.22707 | 37130 ft | 519 kts | 100° |
| 2026-04-17 06:47 | 43.03927 | 28.32435 | 37131 ft | 519 kts | 100° |
| 2026-04-17 06:48 | 43.02751 | 28.42116 | 37129 ft | 519 kts | 100° |
| 2026-04-17 06:48 | 43.01568 | 28.51859 | 37128 ft | 520 kts | 100° |
| 2026-04-17 06:49 | 43.00388 | 28.61588 | 37120 ft | 519 kts | 100° |
| 2026-04-17 06:49 | 42.99206 | 28.71320 | 37122 ft | 519 kts | 100° |
| 2026-04-17 06:50 | 42.97967 | 28.81042 | 37120 ft | 520 kts | 101° |
| 2026-04-17 06:50 | 42.96673 | 28.90766 | 37122 ft | 520 kts | 101° |
| 2026-04-17 06:51 | 42.95436 | 29.00417 | 37118 ft | 519 kts | 100° |
| 2026-04-17 06:51 | 42.94236 | 29.10132 | 37115 ft | 519 kts | 100° |
| 2026-04-17 06:52 | 42.93011 | 29.19854 | 37112 ft | 520 kts | 101° |
| 2026-04-17 06:52 | 42.91717 | 29.29551 | 37112 ft | 520 kts | 101° |
| 2026-04-17 06:53 | 42.90407 | 29.39253 | 37108 ft | 519 kts | 101° |
| 2026-04-17 06:53 | 42.89095 | 29.48929 | 37109 ft | 519 kts | 101° |
| 2026-04-17 06:54 | 42.87780 | 29.58616 | 37106 ft | 519 kts | 101° |
| 2026-04-17 06:54 | 42.86465 | 29.68299 | 37101 ft | 520 kts | 101° |
| 2026-04-17 06:55 | 42.85149 | 29.77990 | 37100 ft | 519 kts | 101° |
| 2026-04-17 06:55 | 42.83844 | 29.87592 | 37109 ft | 519 kts | 101° |
| 2026-04-17 06:56 | 42.82529 | 29.97265 | 37094 ft | 519 kts | 101° |
| 2026-04-17 06:56 | 42.81213 | 30.06934 | 37101 ft | 519 kts | 101° |
| 2026-04-17 06:57 | 42.79897 | 30.16607 | 37096 ft | 519 kts | 101° |
| 2026-04-17 06:57 | 42.78582 | 30.26267 | 37092 ft | 519 kts | 101° |
| 2026-04-17 06:58 | 42.77263 | 30.35935 | 37092 ft | 519 kts | 101° |
| 2026-04-17 06:58 | 42.75941 | 30.45606 | 37086 ft | 519 kts | 101° |
| 2026-04-17 06:59 | 42.74601 | 30.55201 | 37084 ft | 519 kts | 102° |
| 2026-04-17 06:59 | 42.73226 | 30.64851 | 37082 ft | 519 kts | 99° |
| 2026-04-17 07:00 | 42.72245 | 30.74590 | 37083 ft | 520 kts | 98° |
| 2026-04-17 07:00 | 42.71510 | 30.82706 | 37080 ft | 520 kts | 97° |
| 2026-04-17 07:01 | 42.70600 | 30.92466 | 37080 ft | 520 kts | 98° |
| 2026-04-17 07:01 | 42.69633 | 31.02207 | 37080 ft | 520 kts | 98° |
| 2026-04-17 07:02 | 42.68617 | 31.11941 | 37077 ft | 520 kts | 99° |
| 2026-04-17 07:02 | 42.67531 | 31.21661 | 37075 ft | 520 kts | 99° |
| 2026-04-17 07:03 | 42.66460 | 31.31381 | 37073 ft | 520 kts | 99° |
| 2026-04-17 07:03 | 42.65453 | 31.41119 | 37074 ft | 521 kts | 98° |
| 2026-04-17 07:04 | 42.64460 | 31.50863 | 37074 ft | 521 kts | 98° |
| 2026-04-17 07:04 | 42.63399 | 31.60600 | 37068 ft | 521 kts | 99° |
| 2026-04-17 07:05 | 42.62294 | 31.70331 | 37070 ft | 522 kts | 99° |
| 2026-04-17 07:05 | 42.61186 | 31.79997 | 37077 ft | 521 kts | 99° |
| 2026-04-17 07:06 | 42.60070 | 31.89727 | 37069 ft | 521 kts | 99° |
| 2026-04-17 07:06 | 42.59032 | 31.99474 | 37068 ft | 522 kts | 99° |
| 2026-04-17 07:07 | 42.58183 | 32.09259 | 37068 ft | 522 kts | 95° |
| 2026-04-17 07:07 | 42.57696 | 32.19096 | 37067 ft | 523 kts | 94° |
| 2026-04-17 07:08 | 42.57268 | 32.28947 | 37066 ft | 523 kts | 94° |
| 2026-04-17 07:08 | 42.56791 | 32.38793 | 37064 ft | 523 kts | 94° |
| 2026-04-17 07:09 | 42.56265 | 32.48576 | 37060 ft | 523 kts | 94° |
| 2026-04-17 07:09 | 42.55725 | 32.58428 | 37062 ft | 523 kts | 95° |
| 2026-04-17 07:10 | 42.55122 | 32.68262 | 37059 ft | 523 kts | 95° |
| 2026-04-17 07:10 | 42.54468 | 32.78097 | 37063 ft | 523 kts | 95° |
| 2026-04-17 07:11 | 42.53877 | 32.87931 | 37062 ft | 523 kts | 95° |
| 2026-04-17 07:11 | 42.53317 | 32.97771 | 37064 ft | 523 kts | 95° |
| 2026-04-17 07:12 | 42.52761 | 33.07605 | 37069 ft | 523 kts | 95° |
| 2026-04-17 07:12 | 42.52137 | 33.17428 | 37068 ft | 523 kts | 95° |
| 2026-04-17 07:13 | 42.51470 | 33.27239 | 37069 ft | 522 kts | 96° |
| 2026-04-17 07:13 | 42.50798 | 33.37038 | 37068 ft | 523 kts | 96° |
| 2026-04-17 07:14 | 42.50129 | 33.46790 | 37068 ft | 522 kts | 96° |
| 2026-04-17 07:14 | 42.49486 | 33.56585 | 37069 ft | 522 kts | 95° |
| 2026-04-17 07:15 | 42.48906 | 33.66386 | 37076 ft | 522 kts | 95° |
| 2026-04-17 07:15 | 42.48262 | 33.76166 | 37076 ft | 521 kts | 95° |
| 2026-04-17 07:16 | 42.47593 | 33.85939 | 37074 ft | 521 kts | 96° |
| 2026-04-17 07:16 | 42.46916 | 33.95722 | 37074 ft | 521 kts | 96° |
| 2026-04-17 07:17 | 42.46236 | 34.05491 | 37076 ft | 521 kts | 96° |
| 2026-04-17 07:17 | 42.45216 | 34.20078 | 37080 ft | 521 kts | 96° |
| 2026-04-17 07:18 | 42.44514 | 34.29834 | 37082 ft | 521 kts | 96° |
| 2026-04-17 07:18 | 42.43731 | 34.39580 | 37085 ft | 520 kts | 96° |
| 2026-04-17 07:19 | 42.42983 | 34.49297 | 37086 ft | 519 kts | 96° |
| 2026-04-17 07:19 | 42.42279 | 34.59019 | 37090 ft | 518 kts | 96° |
| 2026-04-17 07:20 | 42.41584 | 34.68719 | 37091 ft | 518 kts | 96° |
| 2026-04-17 07:20 | 42.40849 | 34.78413 | 37093 ft | 517 kts | 96° |
| 2026-04-17 07:21 | 42.40047 | 34.88079 | 37102 ft | 517 kts | 96° |
| 2026-04-17 07:21 | 42.39230 | 34.97733 | 37100 ft | 516 kts | 96° |
| 2026-04-17 07:22 | 42.38486 | 35.07317 | 37103 ft | 516 kts | 96° |
| 2026-04-17 07:22 | 42.37771 | 35.16971 | 37105 ft | 515 kts | 96° |
| 2026-04-17 07:23 | 42.36997 | 35.26603 | 37105 ft | 515 kts | 96° |
| 2026-04-17 07:23 | 42.36174 | 35.36215 | 37106 ft | 514 kts | 97° |
| 2026-04-17 07:24 | 42.35335 | 35.45817 | 37113 ft | 515 kts | 97° |
| 2026-04-17 07:24 | 42.34491 | 35.55431 | 37110 ft | 515 kts | 96° |
| 2026-04-17 07:25 | 42.33718 | 35.65057 | 37111 ft | 515 kts | 96° |
| 2026-04-17 07:25 | 42.32961 | 35.74677 | 37113 ft | 514 kts | 96° |
| 2026-04-17 07:26 | 42.32125 | 35.84282 | 37113 ft | 515 kts | 97° |
| 2026-04-17 07:26 | 42.31262 | 35.93842 | 37117 ft | 516 kts | 97° |
| 2026-04-17 07:27 | 42.30383 | 36.03456 | 37115 ft | 515 kts | 97° |
| 2026-04-17 07:27 | 42.29498 | 36.13059 | 37115 ft | 515 kts | 97° |
| 2026-04-17 07:28 | 42.28635 | 36.22671 | 37117 ft | 516 kts | 96° |
| 2026-04-17 07:28 | 42.27833 | 36.32317 | 37118 ft | 517 kts | 96° |
| 2026-04-17 07:29 | 42.26979 | 36.41952 | 37116 ft | 517 kts | 96° |
| 2026-04-17 07:29 | 42.26071 | 36.51570 | 37116 ft | 516 kts | 97° |
| 2026-04-17 07:30 | 42.25145 | 36.61196 | 37117 ft | 517 kts | 97° |
| 2026-04-17 07:30 | 42.24211 | 36.70776 | 37118 ft | 518 kts | 97° |
| 2026-04-17 07:31 | 42.23308 | 36.80435 | 37116 ft | 518 kts | 96° |
| 2026-04-17 07:31 | 42.22456 | 36.90089 | 37120 ft | 518 kts | 96° |
| 2026-04-17 07:32 | 42.21544 | 36.99731 | 37120 ft | 518 kts | 97° |
| 2026-04-17 07:32 | 42.20583 | 37.09372 | 37121 ft | 519 kts | 97° |
| 2026-04-17 07:33 | 42.19614 | 37.18962 | 37118 ft | 519 kts | 97° |
| 2026-04-17 07:33 | 42.18630 | 37.28616 | 37119 ft | 519 kts | 97° |
| 2026-04-17 07:34 | 42.17638 | 37.38273 | 37119 ft | 519 kts | 97° |
| 2026-04-17 07:34 | 42.16639 | 37.47928 | 37119 ft | 520 kts | 97° |
| 2026-04-17 07:35 | 42.15692 | 37.57603 | 37120 ft | 521 kts | 96° |
| 2026-04-17 07:35 | 42.14773 | 37.67284 | 37120 ft | 521 kts | 96° |
| 2026-04-17 07:36 | 42.13775 | 37.76972 | 37121 ft | 521 kts | 97° |
| 2026-04-17 07:36 | 42.12756 | 37.86580 | 37121 ft | 522 kts | 97° |
| 2026-04-17 07:37 | 42.11718 | 37.96255 | 37118 ft | 522 kts | 97° |
| 2026-04-17 07:37 | 42.10669 | 38.05940 | 37121 ft | 522 kts | 97° |
| 2026-04-17 07:38 | 42.09614 | 38.15619 | 37114 ft | 522 kts | 97° |
| 2026-04-17 07:38 | 42.08548 | 38.25318 | 37120 ft | 523 kts | 97° |
| 2026-04-17 07:39 | 42.07474 | 38.35016 | 37122 ft | 524 kts | 97° |
| 2026-04-17 07:39 | 42.06415 | 38.44711 | 37119 ft | 524 kts | 96° |
| 2026-04-17 07:40 | 42.05430 | 38.54358 | 37121 ft | 524 kts | 96° |
| 2026-04-17 07:40 | 42.04374 | 38.64072 | 37123 ft | 525 kts | 97° |
| 2026-04-17 07:41 | 42.03282 | 38.73800 | 37119 ft | 526 kts | 97° |
| 2026-04-17 07:41 | 42.02181 | 38.83535 | 37116 ft | 526 kts | 97° |
| 2026-04-17 07:42 | 42.01076 | 38.93262 | 37119 ft | 526 kts | 97° |
| 2026-04-17 07:42 | 41.99965 | 39.03014 | 37123 ft | 527 kts | 97° |
| 2026-04-17 07:43 | 41.98851 | 39.12763 | 37117 ft | 528 kts | 97° |
| 2026-04-17 07:43 | 41.97733 | 39.22531 | 37117 ft | 528 kts | 97° |
| 2026-04-17 07:44 | 41.96590 | 39.32282 | 37116 ft | 529 kts | 97° |
| 2026-04-17 07:44 | 41.95367 | 39.42031 | 37121 ft | 530 kts | 98° |
| 2026-04-17 07:45 | 41.94163 | 39.51791 | 37118 ft | 530 kts | 97° |
| 2026-04-17 07:45 | 41.93207 | 39.59907 | 37116 ft | 530 kts | 97° |
| 2026-04-17 07:46 | 41.91874 | 39.71279 | 37119 ft | 530 kts | 97° |
| 2026-04-17 07:46 | 41.90717 | 39.81062 | 37121 ft | 531 kts | 97° |
| 2026-04-17 07:47 | 41.89687 | 39.89204 | 37123 ft | 532 kts | 98° |
| 2026-04-17 07:47 | 41.88415 | 39.98987 | 37112 ft | 532 kts | 98° |
| 2026-04-17 07:48 | 41.87176 | 40.08773 | 37124 ft | 532 kts | 97° |
| 2026-04-17 07:48 | 41.85989 | 40.18591 | 37113 ft | 533 kts | 97° |
| 2026-04-17 07:49 | 41.84798 | 40.28415 | 37110 ft | 534 kts | 97° |
| 2026-04-17 07:49 | 41.83524 | 40.38227 | 37104 ft | 534 kts | 98° |
| 2026-04-17 07:50 | 41.82221 | 40.48039 | 37111 ft | 535 kts | 98° |
| 2026-04-17 07:50 | 41.80909 | 40.57874 | 37117 ft | 536 kts | 97° |
| 2026-04-17 07:51 | 41.79695 | 40.67729 | 37108 ft | 535 kts | 95° |
| 2026-04-17 07:51 | 41.79123 | 40.77579 | 37109 ft | 533 kts | 90° |
| 2026-04-17 07:52 | 41.78809 | 40.87517 | 37110 ft | 534 kts | 90° |
| 2026-04-17 07:52 | 41.78421 | 40.97472 | 37107 ft | 535 kts | 90° |
| 2026-04-17 07:53 | 41.77948 | 41.07428 | 37102 ft | 535 kts | 91° |
| 2026-04-17 07:53 | 41.77455 | 41.17389 | 37102 ft | 536 kts | 91° |
| 2026-04-17 07:54 | 41.76899 | 41.27357 | 37098 ft | 537 kts | 91° |
| 2026-04-17 07:54 | 41.76291 | 41.37336 | 37098 ft | 538 kts | 91° |
| 2026-04-17 07:55 | 41.75747 | 41.47340 | 37100 ft | 538 kts | 91° |
| 2026-04-17 07:55 | 41.75225 | 41.57338 | 37100 ft | 538 kts | 91° |
| 2026-04-17 07:56 | 41.74703 | 41.67346 | 37099 ft | 539 kts | 91° |
| 2026-04-17 07:56 | 41.74139 | 41.77365 | 37100 ft | 540 kts | 91° |
| 2026-04-17 07:57 | 41.73511 | 41.87327 | 37094 ft | 541 kts | 92° |
| 2026-04-17 07:57 | 41.72870 | 41.97356 | 37077 ft | 540 kts | 91° |
| 2026-04-17 07:58 | 41.72299 | 42.07399 | 37065 ft | 541 kts | 91° |
| 2026-04-17 07:58 | 41.71473 | 42.17444 | 37076 ft | 544 kts | 95° |
| 2026-04-17 07:59 | 41.70361 | 42.27474 | 37070 ft | 545 kts | 96° |
| 2026-04-17 07:59 | 41.69157 | 42.37482 | 37062 ft | 545 kts | 96° |
| 2026-04-17 08:00 | 41.68021 | 42.47487 | 37084 ft | 543 kts | 96° |
| 2026-04-17 08:00 | 41.66917 | 42.57442 | 37076 ft | 545 kts | 96° |
| 2026-04-17 08:01 | 41.65820 | 42.67457 | 37091 ft | 544 kts | 96° |
| 2026-04-17 08:01 | 41.64721 | 42.77466 | 37089 ft | 544 kts | 96° |
| 2026-04-17 08:02 | 41.63549 | 42.87470 | 37084 ft | 544 kts | 97° |
| 2026-04-17 08:02 | 41.62355 | 42.97471 | 37087 ft | 544 kts | 97° |
| 2026-04-17 08:03 | 41.61165 | 43.07453 | 37093 ft | 544 kts | 97° |
| 2026-04-17 08:03 | 41.59982 | 43.17427 | 37097 ft | 544 kts | 97° |
| 2026-04-17 08:04 | 41.58808 | 43.27415 | 37101 ft | 544 kts | 97° |
| 2026-04-17 08:04 | 41.57642 | 43.37393 | 37106 ft | 543 kts | 97° |
| 2026-04-17 08:05 | 41.56484 | 43.47371 | 37121 ft | 543 kts | 97° |
| 2026-04-17 08:05 | 41.55325 | 43.57289 | 37136 ft | 544 kts | 97° |
| 2026-04-17 08:06 | 41.54090 | 43.67248 | 37167 ft | 543 kts | 98° |
| 2026-04-17 08:06 | 41.52850 | 43.77209 | 37163 ft | 543 kts | 98° |
| 2026-04-17 08:07 | 41.51613 | 43.87156 | 37188 ft | 544 kts | 98° |
| 2026-04-17 08:07 | 41.50388 | 43.97046 | 37188 ft | 543 kts | 98° |
| 2026-04-17 08:08 | 41.49165 | 44.06981 | 37198 ft | 542 kts | 98° |
| 2026-04-17 08:08 | 41.47948 | 44.16907 | 37208 ft | 543 kts | 98° |
| 2026-04-17 08:09 | 41.46655 | 44.26848 | 37222 ft | 544 kts | 99° |
| 2026-04-17 08:09 | 41.45332 | 44.36783 | 37234 ft | 543 kts | 99° |
| 2026-04-17 08:10 | 41.44008 | 44.46704 | 37232 ft | 543 kts | 99° |
| 2026-04-17 08:10 | 41.42725 | 44.56539 | 37239 ft | 542 kts | 98° |
| 2026-04-17 08:11 | 41.41506 | 44.66464 | 37252 ft | 543 kts | 98° |
| 2026-04-17 08:11 | 41.40229 | 44.76392 | 37248 ft | 543 kts | 98° |
| 2026-04-17 08:12 | 41.38937 | 44.86299 | 37254 ft | 543 kts | 99° |
| 2026-04-17 08:12 | 41.37625 | 44.96192 | 37253 ft | 542 kts | 99° |
| 2026-04-17 08:13 | 41.36240 | 45.06076 | 37251 ft | 543 kts | 100° |
| 2026-04-17 08:14 | 41.33100 | 45.20566 | 37257 ft | 544 kts | 110° |
| 2026-04-17 08:14 | 41.30481 | 45.30012 | 37248 ft | 544 kts | 110° |
| 2026-04-17 08:15 | 41.27919 | 45.39478 | 37249 ft | 544 kts | 109° |
| 2026-04-17 08:15 | 41.25436 | 45.48976 | 37255 ft | 544 kts | 109° |
| 2026-04-17 08:16 | 41.22988 | 45.58420 | 37260 ft | 544 kts | 109° |
| 2026-04-17 08:16 | 41.20501 | 45.67902 | 37255 ft | 544 kts | 109° |
| 2026-04-17 08:17 | 41.18018 | 45.77385 | 37260 ft | 543 kts | 109° |
| 2026-04-17 08:17 | 41.15570 | 45.86884 | 37252 ft | 543 kts | 109° |
| 2026-04-17 08:18 | 41.13083 | 45.96341 | 37258 ft | 543 kts | 109° |
| 2026-04-17 08:18 | 41.10550 | 46.05791 | 37257 ft | 543 kts | 110° |
| 2026-04-17 08:19 | 41.08018 | 46.15228 | 37262 ft | 543 kts | 110° |
| 2026-04-17 08:19 | 41.05489 | 46.24667 | 37258 ft | 543 kts | 110° |
| 2026-04-17 08:20 | 41.02861 | 46.34058 | 37261 ft | 543 kts | 110° |
| 2026-04-17 08:20 | 41.00350 | 46.43440 | 37265 ft | 544 kts | 109° |
| 2026-04-17 08:21 | 40.97909 | 46.52930 | 37262 ft | 544 kts | 109° |
| 2026-04-17 08:21 | 40.95426 | 46.62377 | 37257 ft | 543 kts | 109° |
| 2026-04-17 08:22 | 40.92871 | 46.71783 | 37269 ft | 543 kts | 110° |
| 2026-04-17 08:22 | 40.90270 | 46.81164 | 37268 ft | 544 kts | 110° |
| 2026-04-17 08:22 | 40.89296 | 46.85994 | 37275 ft | 544 kts | 98° |
| 2026-04-17 08:23 | 40.88870 | 46.90967 | 37293 ft | 543 kts | 94° |
| 2026-04-17 08:23 | 40.88406 | 47.00955 | 37277 ft | 545 kts | 92° |
| 2026-04-17 08:24 | 40.87899 | 47.10872 | 37268 ft | 544 kts | 94° |
| 2026-04-17 08:24 | 40.87229 | 47.20810 | 37258 ft | 543 kts | 95° |
| 2026-04-17 08:25 | 40.86471 | 47.30751 | 37262 ft | 544 kts | 95° |
| 2026-04-17 08:25 | 40.85699 | 47.40713 | 37253 ft | 545 kts | 96° |
| 2026-04-17 08:26 | 40.84891 | 47.50663 | 37241 ft | 544 kts | 97° |
| 2026-04-17 08:26 | 40.84120 | 47.60605 | 37235 ft | 543 kts | 94° |
| 2026-04-17 08:27 | 40.83568 | 47.70493 | 37239 ft | 544 kts | 94° |
| 2026-04-17 08:27 | 40.83046 | 47.80474 | 37237 ft | 545 kts | 94° |
| 2026-04-17 08:28 | 40.82460 | 47.90436 | 37243 ft | 544 kts | 95° |
| 2026-04-17 08:28 | 40.81841 | 48.00386 | 37242 ft | 544 kts | 95° |
| 2026-04-17 08:29 | 40.81216 | 48.10338 | 37240 ft | 544 kts | 95° |
| 2026-04-17 08:29 | 40.80528 | 48.20273 | 37239 ft | 544 kts | 95° |
| 2026-04-17 08:30 | 40.79795 | 48.30215 | 37229 ft | 544 kts | 95° |
| 2026-04-17 08:30 | 40.79109 | 48.40162 | 37225 ft | 543 kts | 95° |
| 2026-04-17 08:31 | 40.78584 | 48.48419 | 37218 ft | 543 kts | 95° |
| 2026-04-17 08:31 | 40.77824 | 48.59954 | 37215 ft | 543 kts | 95° |
| 2026-04-17 08:32 | 40.77221 | 48.68271 | 37212 ft | 544 kts | 95° |
| 2026-04-17 08:32 | 40.76494 | 48.78151 | 37204 ft | 544 kts | 95° |
| 2026-04-17 08:33 | 40.75760 | 48.88066 | 37199 ft | 543 kts | 95° |
| 2026-04-17 08:33 | 40.75027 | 48.97978 | 37206 ft | 543 kts | 95° |
| 2026-04-17 08:34 | 40.74297 | 49.07893 | 37192 ft | 543 kts | 95° |
| 2026-04-17 08:34 | 40.73570 | 49.17818 | 37195 ft | 543 kts | 95° |
| 2026-04-17 08:35 | 40.72597 | 49.27680 | 37188 ft | 542 kts | 107° |
| 2026-04-17 08:35 | 40.69843 | 49.36919 | 37215 ft | 542 kts | 115° |
| 2026-04-17 08:36 | 40.66770 | 49.45992 | 37204 ft | 542 kts | 115° |
| 2026-04-17 08:36 | 40.63859 | 49.55065 | 37199 ft | 541 kts | 114° |
| 2026-04-17 08:37 | 40.60945 | 49.64192 | 37210 ft | 541 kts | 114° |
| 2026-04-17 08:37 | 40.57983 | 49.73322 | 37221 ft | 543 kts | 115° |
| 2026-04-17 08:38 | 40.54945 | 49.82408 | 37228 ft | 542 kts | 115° |
| 2026-04-17 08:38 | 40.51886 | 49.91453 | 37235 ft | 541 kts | 115° |
| 2026-04-17 08:39 | 40.48819 | 50.00504 | 37237 ft | 542 kts | 115° |
| 2026-04-17 08:39 | 40.46195 | 50.09790 | 37255 ft | 544 kts | 102° |
| 2026-04-17 08:40 | 40.45001 | 50.19550 | 37247 ft | 546 kts | 98° |
| 2026-04-17 08:40 | 40.43968 | 50.29430 | 37236 ft | 545 kts | 98° |
| 2026-04-17 08:41 | 40.42789 | 50.39268 | 37239 ft | 544 kts | 100° |
| 2026-04-17 08:41 | 40.41500 | 50.49071 | 37245 ft | 545 kts | 101° |
| 2026-04-17 08:42 | 40.40116 | 50.58850 | 37249 ft | 545 kts | 101° |
| 2026-04-17 08:42 | 40.38702 | 50.68625 | 37255 ft | 545 kts | 101° |
| 2026-04-17 08:43 | 40.37339 | 50.78405 | 37254 ft | 545 kts | 101° |
| 2026-04-17 08:43 | 40.36038 | 50.88125 | 37262 ft | 545 kts | 100° |
| 2026-04-17 08:44 | 40.34690 | 50.97926 | 37266 ft | 545 kts | 101° |
| 2026-04-17 08:44 | 40.33283 | 51.07688 | 37267 ft | 544 kts | 101° |
| 2026-04-17 08:45 | 40.31867 | 51.17440 | 37276 ft | 544 kts | 101° |
| 2026-04-17 08:45 | 40.30448 | 51.27189 | 37273 ft | 544 kts | 101° |
| 2026-04-17 08:46 | 40.29042 | 51.36874 | 37275 ft | 544 kts | 101° |
| 2026-04-17 08:46 | 40.27626 | 51.46621 | 37278 ft | 544 kts | 101° |
| 2026-04-17 08:47 | 40.26183 | 51.56349 | 37281 ft | 544 kts | 101° |
| 2026-04-17 08:47 | 40.24759 | 51.66074 | 37279 ft | 544 kts | 101° |
| 2026-04-17 08:48 | 40.23341 | 51.75819 | 37278 ft | 544 kts | 101° |
| 2026-04-17 08:48 | 40.21930 | 51.85539 | 37283 ft | 543 kts | 101° |
| 2026-04-17 08:49 | 40.20532 | 51.95184 | 37281 ft | 543 kts | 101° |
| 2026-04-17 08:49 | 40.19099 | 52.04893 | 37282 ft | 543 kts | 102° |
| 2026-04-17 08:50 | 40.17590 | 52.14576 | 37284 ft | 543 kts | 102° |
| 2026-04-17 08:50 | 40.16071 | 52.24235 | 37286 ft | 542 kts | 102° |
| 2026-04-17 08:51 | 40.14562 | 52.33876 | 37287 ft | 541 kts | 102° |
| 2026-04-17 08:51 | 40.13133 | 52.43537 | 37284 ft | 542 kts | 101° |
| 2026-04-17 08:52 | 40.11685 | 52.53198 | 37286 ft | 542 kts | 102° |
| 2026-04-17 08:52 | 40.10183 | 52.62835 | 37284 ft | 541 kts | 102° |
| 2026-04-17 08:53 | 40.08682 | 52.72397 | 37285 ft | 541 kts | 102° |
| 2026-04-17 08:53 | 40.07170 | 52.82027 | 37293 ft | 541 kts | 102° |
| 2026-04-17 08:54 | 40.05657 | 52.91660 | 37292 ft | 542 kts | 102° |
| 2026-04-17 08:54 | 40.04068 | 53.01272 | 37289 ft | 540 kts | 105° |
| 2026-04-17 08:55 | 40.01723 | 53.10566 | 37293 ft | 539 kts | 112° |
| 2026-04-17 08:55 | 39.98999 | 53.19675 | 37289 ft | 539 kts | 113° |
| 2026-04-17 08:56 | 39.96259 | 53.28788 | 37282 ft | 539 kts | 112° |
| 2026-04-17 08:56 | 39.93590 | 53.37912 | 37279 ft | 538 kts | 111° |
| 2026-04-17 08:57 | 39.91026 | 53.47003 | 37270 ft | 538 kts | 111° |
| 2026-04-17 08:57 | 39.88441 | 53.56163 | 37270 ft | 539 kts | 112° |
| 2026-04-17 08:58 | 39.85786 | 53.65307 | 37269 ft | 539 kts | 112° |
| 2026-04-17 08:58 | 39.83123 | 53.74427 | 37265 ft | 538 kts | 112° |
| 2026-04-17 08:59 | 39.80462 | 53.83536 | 37275 ft | 539 kts | 112° |
| 2026-04-17 08:59 | 39.77800 | 53.92654 | 37274 ft | 540 kts | 112° |
| 2026-04-17 09:00 | 39.75156 | 54.01715 | 37255 ft | 539 kts | 112° |
| 2026-04-17 09:00 | 39.72502 | 54.10821 | 37266 ft | 539 kts | 112° |
| 2026-04-17 09:01 | 39.69850 | 54.19922 | 37268 ft | 539 kts | 112° |
| 2026-04-17 09:01 | 39.67169 | 54.29022 | 37272 ft | 540 kts | 112° |
| 2026-04-17 09:02 | 39.64416 | 54.38104 | 37270 ft | 540 kts | 113° |
| 2026-04-17 09:02 | 39.61656 | 54.47157 | 37261 ft | 539 kts | 113° |
| 2026-04-17 09:03 | 39.58958 | 54.56223 | 37261 ft | 539 kts | 112° |
| 2026-04-17 09:03 | 39.56299 | 54.65323 | 37256 ft | 540 kts | 112° |
| 2026-04-17 09:04 | 39.53582 | 54.74389 | 37256 ft | 539 kts | 113° |
| 2026-04-17 09:04 | 39.50852 | 54.83385 | 37253 ft | 540 kts | 113° |
| 2026-04-17 09:05 | 39.48097 | 54.92454 | 37264 ft | 541 kts | 113° |
| 2026-04-17 09:05 | 39.45345 | 55.01527 | 37267 ft | 541 kts | 113° |
| 2026-04-17 09:06 | 39.42600 | 55.10580 | 37267 ft | 540 kts | 113° |
| 2026-04-17 09:06 | 39.39859 | 55.19629 | 37261 ft | 541 kts | 113° |
| 2026-04-17 09:07 | 39.37086 | 55.28675 | 37266 ft | 542 kts | 114° |
| 2026-04-17 09:07 | 39.34247 | 55.37693 | 37266 ft | 542 kts | 114° |
| 2026-04-17 09:08 | 39.31409 | 55.46708 | 37265 ft | 541 kts | 113° |
| 2026-04-17 09:08 | 39.28639 | 55.55755 | 37260 ft | 542 kts | 114° |
| 2026-04-17 09:09 | 39.25543 | 55.64588 | 37261 ft | 542 kts | 118° |
| 2026-04-17 09:09 | 39.22180 | 55.73311 | 37263 ft | 543 kts | 118° |
| 2026-04-17 09:10 | 39.17086 | 55.86349 | 37262 ft | 543 kts | 119° |
| 2026-04-17 09:10 | 39.13707 | 55.94986 | 37262 ft | 543 kts | 119° |
| 2026-04-17 09:11 | 39.10307 | 56.03678 | 37261 ft | 544 kts | 119° |
| 2026-04-17 09:11 | 39.06905 | 56.12383 | 37263 ft | 544 kts | 118° |
| 2026-04-17 09:12 | 39.03505 | 56.21090 | 37263 ft | 544 kts | 118° |
| 2026-04-17 09:12 | 39.00103 | 56.29785 | 37262 ft | 544 kts | 119° |
| 2026-04-17 09:13 | 38.97289 | 56.38841 | 37268 ft | 547 kts | 110° |
| 2026-04-17 09:13 | 38.94931 | 56.48146 | 37258 ft | 547 kts | 109° |
| 2026-04-17 09:14 | 38.92554 | 56.57361 | 37251 ft | 546 kts | 110° |
| 2026-04-17 09:14 | 38.90062 | 56.66575 | 37251 ft | 546 kts | 111° |
| 2026-04-17 09:15 | 38.87487 | 56.75762 | 37252 ft | 547 kts | 111° |
| 2026-04-17 09:15 | 38.84903 | 56.84930 | 37254 ft | 546 kts | 111° |
| 2026-04-17 09:16 | 38.82323 | 56.94081 | 37254 ft | 545 kts | 111° |
| 2026-04-17 09:16 | 38.79763 | 57.03182 | 37251 ft | 545 kts | 111° |
| 2026-04-17 09:17 | 38.77194 | 57.12335 | 37246 ft | 546 kts | 111° |
| 2026-04-17 09:17 | 38.74632 | 57.21494 | 37247 ft | 545 kts | 111° |
| 2026-04-17 09:18 | 38.72083 | 57.30639 | 37248 ft | 545 kts | 111° |
| 2026-04-17 09:18 | 38.69495 | 57.39763 | 37247 ft | 545 kts | 112° |
| 2026-04-17 09:19 | 38.67305 | 57.47328 | 37247 ft | 546 kts | 112° |
| 2026-04-17 09:19 | 38.64671 | 57.56431 | 37249 ft | 545 kts | 112° |
| 2026-04-17 09:20 | 38.62046 | 57.65531 | 37247 ft | 545 kts | 112° |
| 2026-04-17 09:20 | 38.59171 | 57.74488 | 37247 ft | 544 kts | 116° |
| 2026-04-17 09:21 | 38.56052 | 57.83316 | 37247 ft | 545 kts | 117° |
| 2026-04-17 09:21 | 38.52920 | 57.92065 | 37240 ft | 544 kts | 117° |
| 2026-04-17 09:22 | 38.49773 | 58.00860 | 37245 ft | 544 kts | 117° |
| 2026-04-17 09:22 | 38.46642 | 58.09642 | 37243 ft | 544 kts | 117° |
| 2026-04-17 09:23 | 38.43515 | 58.18452 | 37242 ft | 545 kts | 117° |
| 2026-04-17 09:23 | 38.40403 | 58.27258 | 37243 ft | 544 kts | 118° |
| 2026-04-17 09:24 | 38.36864 | 58.35730 | 37247 ft | 539 kts | 125° |
| 2026-04-17 09:24 | 38.32946 | 58.43807 | 37243 ft | 539 kts | 126° |
| 2026-04-17 09:25 | 38.28964 | 58.51904 | 37237 ft | 540 kts | 126° |
| 2026-04-17 09:25 | 38.25044 | 58.60050 | 37239 ft | 539 kts | 125° |
| 2026-04-17 09:26 | 38.21145 | 58.68210 | 37241 ft | 539 kts | 125° |
| 2026-04-17 09:26 | 38.17259 | 58.76371 | 37239 ft | 540 kts | 125° |
| 2026-04-17 09:27 | 38.13375 | 58.84545 | 37240 ft | 540 kts | 125° |
| 2026-04-17 09:27 | 38.09525 | 58.92680 | 37248 ft | 539 kts | 125° |
| 2026-04-17 09:28 | 38.05678 | 59.00840 | 37247 ft | 539 kts | 126° |
| 2026-04-17 09:28 | 38.01780 | 59.08964 | 37245 ft | 539 kts | 126° |
| 2026-04-17 09:29 | 37.97862 | 59.17071 | 37244 ft | 539 kts | 126° |
| 2026-04-17 09:29 | 37.93949 | 59.25176 | 37245 ft | 538 kts | 126° |
| 2026-04-17 09:30 | 37.90040 | 59.33252 | 37246 ft | 538 kts | 127° |
| 2026-04-17 09:30 | 37.85829 | 59.40970 | 37248 ft | 534 kts | 132° |
| 2026-04-17 09:31 | 37.81280 | 59.48387 | 37247 ft | 533 kts | 134° |
| 2026-04-17 09:31 | 37.76701 | 59.55741 | 37254 ft | 532 kts | 133° |
| 2026-04-17 09:32 | 37.72167 | 59.63137 | 37232 ft | 532 kts | 133° |
| 2026-04-17 09:32 | 37.67654 | 59.70538 | 37247 ft | 532 kts | 133° |
| 2026-04-17 09:33 | 37.63134 | 59.77961 | 37247 ft | 532 kts | 133° |
| 2026-04-17 09:33 | 37.58628 | 59.85365 | 37247 ft | 532 kts | 133° |
| 2026-04-17 09:34 | 37.54135 | 59.92758 | 37242 ft | 531 kts | 133° |
| 2026-04-17 09:34 | 37.49653 | 60.00141 | 37243 ft | 530 kts | 133° |
| 2026-04-17 09:35 | 37.45177 | 60.07519 | 37255 ft | 530 kts | 133° |
| 2026-04-17 09:35 | 37.40703 | 60.14894 | 37242 ft | 530 kts | 133° |
| 2026-04-17 09:36 | 37.36254 | 60.22175 | 37246 ft | 528 kts | 134° |
| 2026-04-17 09:36 | 37.31722 | 60.29440 | 37246 ft | 527 kts | 134° |
| 2026-04-17 09:37 | 37.27181 | 60.36682 | 37239 ft | 528 kts | 134° |
| 2026-04-17 09:37 | 37.22687 | 60.43978 | 37240 ft | 528 kts | 133° |
| 2026-04-17 09:38 | 37.18226 | 60.51301 | 37238 ft | 528 kts | 133° |
| 2026-04-17 09:38 | 37.13708 | 60.58570 | 37236 ft | 528 kts | 134° |
| 2026-04-17 09:39 | 37.09156 | 60.65821 | 37236 ft | 529 kts | 134° |
| 2026-04-17 09:39 | 37.04599 | 60.73064 | 37237 ft | 529 kts | 134° |
| 2026-04-17 09:40 | 37.00053 | 60.80293 | 37236 ft | 528 kts | 134° |
| 2026-04-17 09:40 | 36.95586 | 60.87520 | 37231 ft | 530 kts | 131° |
| 2026-04-17 09:41 | 36.91345 | 60.95065 | 37233 ft | 531 kts | 130° |
| 2026-04-17 09:41 | 36.87175 | 61.02693 | 37237 ft | 531 kts | 130° |
| 2026-04-17 09:42 | 36.82982 | 61.10299 | 37232 ft | 530 kts | 130° |
| 2026-04-17 09:42 | 36.78764 | 61.17848 | 37231 ft | 529 kts | 131° |
| 2026-04-17 09:43 | 36.74497 | 61.25333 | 37231 ft | 529 kts | 131° |
| 2026-04-17 09:43 | 36.70228 | 61.32810 | 37230 ft | 529 kts | 131° |
| 2026-04-17 09:44 | 36.65975 | 61.40291 | 37232 ft | 529 kts | 131° |
| 2026-04-17 09:44 | 36.61691 | 61.47717 | 37235 ft | 527 kts | 133° |
| 2026-04-17 09:45 | 36.57376 | 61.55049 | 37227 ft | 529 kts | 133° |
| 2026-04-17 09:45 | 36.53074 | 61.62473 | 37236 ft | 528 kts | 133° |
| 2026-04-17 09:46 | 36.48754 | 61.69852 | 37233 ft | 527 kts | 133° |
| 2026-04-17 09:46 | 36.44418 | 61.77208 | 37230 ft | 528 kts | 133° |
| 2026-04-17 09:47 | 36.40111 | 61.84532 | 37225 ft | 528 kts | 133° |
| 2026-04-17 09:47 | 36.35783 | 61.91891 | 37223 ft | 527 kts | 134° |
| 2026-04-17 09:48 | 36.31419 | 61.99190 | 37229 ft | 526 kts | 134° |
| 2026-04-17 09:48 | 36.27059 | 62.06476 | 37224 ft | 526 kts | 134° |
| 2026-04-17 09:49 | 36.22699 | 62.13782 | 37225 ft | 527 kts | 134° |
| 2026-04-17 09:49 | 36.18346 | 62.21103 | 37222 ft | 526 kts | 134° |
| 2026-04-17 09:50 | 36.14047 | 62.28358 | 37216 ft | 526 kts | 134° |
| 2026-04-17 09:50 | 36.09681 | 62.35610 | 37213 ft | 526 kts | 135° |
| 2026-04-17 09:51 | 36.05284 | 62.42844 | 37219 ft | 526 kts | 135° |
| 2026-04-17 09:51 | 36.00888 | 62.50076 | 37215 ft | 526 kts | 135° |
| 2026-04-17 09:52 | 35.96500 | 62.57304 | 37217 ft | 526 kts | 135° |
| 2026-04-17 09:52 | 35.92106 | 62.64544 | 37208 ft | 527 kts | 135° |
| 2026-04-17 09:53 | 35.87705 | 62.71802 | 37203 ft | 528 kts | 135° |
| 2026-04-17 09:53 | 35.83310 | 62.79063 | 37194 ft | 529 kts | 135° |
| 2026-04-17 09:54 | 35.78912 | 62.86342 | 37205 ft | 529 kts | 135° |
| 2026-04-17 09:54 | 35.74546 | 62.93580 | 37196 ft | 530 kts | 135° |
| 2026-04-17 09:55 | 35.70153 | 63.00852 | 37186 ft | 528 kts | 136° |
| 2026-04-17 09:55 | 35.65707 | 63.08050 | 37189 ft | 529 kts | 136° |
| 2026-04-17 09:56 | 35.61227 | 63.15249 | 37174 ft | 529 kts | 136° |
| 2026-04-17 09:56 | 35.56758 | 63.22458 | 37170 ft | 529 kts | 136° |
| 2026-04-17 09:57 | 35.52319 | 63.29606 | 37196 ft | 530 kts | 136° |
| 2026-04-17 09:57 | 35.47823 | 63.36814 | 37167 ft | 532 kts | 136° |
| 2026-04-17 09:58 | 35.43320 | 63.44025 | 37196 ft | 532 kts | 136° |
| 2026-04-17 09:58 | 35.38811 | 63.51225 | 37190 ft | 532 kts | 136° |
| 2026-04-17 09:59 | 35.34288 | 63.58428 | 37188 ft | 533 kts | 136° |
| 2026-04-17 09:59 | 35.29733 | 63.65515 | 37180 ft | 531 kts | 138° |
| 2026-04-17 10:00 | 35.25097 | 63.72617 | 37188 ft | 537 kts | 136° |
| 2026-04-17 10:00 | 35.20582 | 63.79911 | 37156 ft | 538 kts | 135° |
| 2026-04-17 10:01 | 35.16078 | 63.87216 | 37165 ft | 538 kts | 135° |
| 2026-04-17 10:01 | 35.11498 | 63.94469 | 37162 ft | 539 kts | 136° |
| 2026-04-17 10:02 | 35.06896 | 64.01693 | 37149 ft | 538 kts | 136° |
| 2026-04-17 10:02 | 35.02291 | 64.08906 | 37141 ft | 539 kts | 136° |
| 2026-04-17 10:03 | 34.97678 | 64.16118 | 37130 ft | 539 kts | 136° |
| 2026-04-17 10:03 | 34.93086 | 64.23270 | 37123 ft | 538 kts | 136° |
| 2026-04-17 10:04 | 34.88476 | 64.30431 | 37093 ft | 536 kts | 136° |
| 2026-04-17 10:04 | 34.83872 | 64.37569 | 37065 ft | 537 kts | 135° |
| 2026-04-17 10:05 | 34.79304 | 64.44768 | 37081 ft | 538 kts | 135° |
| 2026-04-17 10:05 | 34.74735 | 64.51963 | 37060 ft | 536 kts | 135° |
| 2026-04-17 10:06 | 34.70863 | 64.57929 | 37044 ft | 537 kts | 136° |
| 2026-04-17 10:06 | 34.66220 | 64.65038 | 37033 ft | 537 kts | 136° |
| 2026-04-17 10:07 | 34.61614 | 64.72095 | 36988 ft | 536 kts | 135° |
| 2026-04-17 10:07 | 34.57047 | 64.79234 | 36966 ft | 535 kts | 135° |
| 2026-04-17 10:08 | 34.52472 | 64.86359 | 36957 ft | 535 kts | 135° |
| 2026-04-17 10:08 | 34.47783 | 64.93328 | 36953 ft | 533 kts | 136° |
| 2026-04-17 10:09 | 34.43158 | 65.00375 | 36948 ft | 534 kts | 135° |
| 2026-04-17 10:09 | 34.38584 | 65.07473 | 36930 ft | 534 kts | 134° |
| 2026-04-17 10:10 | 34.34006 | 65.14546 | 36954 ft | 534 kts | 135° |
| 2026-04-17 10:11 | 34.27067 | 65.25014 | 36947 ft | 532 kts | 135° |
| 2026-04-17 10:11 | 34.22429 | 65.31977 | 36964 ft | 531 kts | 135° |
| 2026-04-17 10:12 | 34.17794 | 65.38942 | 36965 ft | 532 kts | 135° |
| 2026-04-17 10:12 | 34.13186 | 65.45927 | 36961 ft | 532 kts | 135° |
| 2026-04-17 10:13 | 34.08596 | 65.52936 | 36879 ft | 532 kts | 135° |
| 2026-04-17 10:13 | 34.03925 | 65.59841 | 36932 ft | 531 kts | 136° |
| 2026-04-17 10:14 | 33.99299 | 65.66798 | 36936 ft | 531 kts | 134° |
| 2026-04-17 10:14 | 33.94762 | 65.73756 | 36979 ft | 533 kts | 134° |
| 2026-04-17 10:15 | 33.90149 | 65.80719 | 36964 ft | 530 kts | 135° |
| 2026-04-17 10:15 | 33.85510 | 65.87608 | 36974 ft | 530 kts | 135° |
| 2026-04-17 10:16 | 33.80854 | 65.94499 | 36982 ft | 531 kts | 135° |
| 2026-04-17 10:16 | 33.76207 | 66.01390 | 36955 ft | 529 kts | 135° |
| 2026-04-17 10:17 | 33.71582 | 66.08257 | 36957 ft | 528 kts | 135° |
| 2026-04-17 10:17 | 33.66992 | 66.15132 | 36918 ft | 527 kts | 135° |
| 2026-04-17 10:18 | 33.62376 | 66.22001 | 36969 ft | 530 kts | 135° |
| 2026-04-17 10:18 | 33.57744 | 66.28868 | 36951 ft | 528 kts | 135° |
| 2026-04-17 10:19 | 33.53125 | 66.35717 | 36981 ft | 529 kts | 135° |
| 2026-04-17 10:19 | 33.48482 | 66.42578 | 36969 ft | 529 kts | 136° |
| 2026-04-17 10:20 | 33.43794 | 66.49268 | 36936 ft | 528 kts | 136° |
| 2026-04-17 10:20 | 33.39134 | 66.56071 | 36994 ft | 529 kts | 135° |
| 2026-04-17 10:21 | 33.34483 | 66.62931 | 37026 ft | 532 kts | 135° |
| 2026-04-17 10:21 | 33.29836 | 66.69789 | 37028 ft | 529 kts | 136° |
| 2026-04-17 10:22 | 33.25155 | 66.76559 | 37028 ft | 527 kts | 136° |
| 2026-04-17 10:22 | 33.20449 | 66.83311 | 37051 ft | 529 kts | 136° |
| 2026-04-17 10:23 | 33.15744 | 66.90059 | 37003 ft | 528 kts | 135° |
| 2026-04-17 10:23 | 33.11103 | 66.96858 | 37057 ft | 529 kts | 135° |
| 2026-04-17 10:24 | 33.06434 | 67.03661 | 37050 ft | 529 kts | 136° |
| 2026-04-17 10:24 | 33.01751 | 67.10377 | 37047 ft | 529 kts | 136° |
| 2026-04-17 10:25 | 32.97034 | 67.17107 | 37000 ft | 527 kts | 136° |
| 2026-04-17 10:25 | 32.92328 | 67.23814 | 37000 ft | 529 kts | 136° |
| 2026-04-17 10:26 | 32.87596 | 67.30564 | 37006 ft | 531 kts | 136° |
| 2026-04-17 10:26 | 32.82868 | 67.37313 | 37002 ft | 531 kts | 136° |
| 2026-04-17 10:27 | 32.78171 | 67.44018 | 36952 ft | 531 kts | 136° |
| 2026-04-17 10:27 | 32.73390 | 67.50686 | 36956 ft | 530 kts | 137° |
| 2026-04-17 10:28 | 32.68499 | 67.57256 | 36944 ft | 530 kts | 138° |
| 2026-04-17 10:28 | 32.63603 | 67.63784 | 36937 ft | 529 kts | 138° |
| 2026-04-17 10:29 | 32.58709 | 67.70294 | 36943 ft | 529 kts | 138° |
| 2026-04-17 10:29 | 32.53804 | 67.76803 | 36932 ft | 529 kts | 138° |
| 2026-04-17 10:30 | 32.48912 | 67.83322 | 36931 ft | 530 kts | 136° |
| 2026-04-17 10:30 | 32.44195 | 67.90046 | 36937 ft | 532 kts | 135° |
| 2026-04-17 10:31 | 32.39556 | 67.96806 | 36939 ft | 532 kts | 135° |
| 2026-04-17 10:31 | 32.34898 | 68.03615 | 36951 ft | 531 kts | 135° |
| 2026-04-17 10:32 | 32.30225 | 68.10367 | 36948 ft | 530 kts | 136° |
| 2026-04-17 10:32 | 32.25504 | 68.17069 | 36954 ft | 530 kts | 136° |
| 2026-04-17 10:33 | 32.20742 | 68.23795 | 36939 ft | 542 kts | 135° |
| 2026-04-17 10:33 | 32.15853 | 68.30716 | 36950 ft | 550 kts | 135° |
| 2026-04-17 10:34 | 32.10988 | 68.37603 | 36940 ft | 545 kts | 135° |
| 2026-04-17 10:34 | 32.06141 | 68.44459 | 36947 ft | 545 kts | 135° |
| 2026-04-17 10:35 | 32.01266 | 68.51336 | 36933 ft | 547 kts | 135° |
| 2026-04-17 10:35 | 31.96387 | 68.58242 | 36928 ft | 547 kts | 134° |
| 2026-04-17 10:36 | 31.91567 | 68.65166 | 36922 ft | 546 kts | 134° |
| 2026-04-17 10:36 | 31.86698 | 68.72032 | 36927 ft | 547 kts | 134° |
| 2026-04-17 10:37 | 31.81828 | 68.78851 | 36928 ft | 548 kts | 135° |
| 2026-04-17 10:37 | 31.76922 | 68.85698 | 36926 ft | 547 kts | 135° |
| 2026-04-17 10:38 | 31.72014 | 68.92529 | 36925 ft | 546 kts | 134° |
| 2026-04-17 10:38 | 31.67102 | 68.99356 | 36933 ft | 547 kts | 134° |
| 2026-04-17 10:39 | 31.62339 | 69.06333 | 36938 ft | 547 kts | 132° |
| 2026-04-17 10:39 | 31.57665 | 69.13386 | 36941 ft | 547 kts | 131° |
| 2026-04-17 10:40 | 31.53009 | 69.20381 | 36924 ft | 549 kts | 132° |
| 2026-04-17 10:40 | 31.48252 | 69.27380 | 36927 ft | 547 kts | 133° |
| 2026-04-17 10:41 | 31.43495 | 69.34340 | 36918 ft | 547 kts | 133° |
| 2026-04-17 10:41 | 31.38743 | 69.41297 | 36936 ft | 547 kts | 132° |
| 2026-04-17 10:42 | 31.33891 | 69.48135 | 36937 ft | 541 kts | 141° |
| 2026-04-17 10:42 | 31.28105 | 69.53670 | 36948 ft | 536 kts | 147° |
| 2026-04-17 10:43 | 31.22153 | 69.58930 | 36935 ft | 537 kts | 147° |
| 2026-04-17 10:43 | 31.16264 | 69.64293 | 36948 ft | 537 kts | 146° |
| 2026-04-17 10:44 | 31.10448 | 69.69754 | 36955 ft | 537 kts | 144° |
| 2026-04-17 10:44 | 31.04663 | 69.75275 | 36945 ft | 537 kts | 144° |
| 2026-04-17 10:45 | 30.98919 | 69.80750 | 36917 ft | 536 kts | 144° |
| 2026-04-17 10:45 | 30.93134 | 69.86245 | 36955 ft | 537 kts | 144° |
| 2026-04-17 10:46 | 30.87284 | 69.91689 | 36957 ft | 538 kts | 145° |
| 2026-04-17 10:46 | 30.81429 | 69.97087 | 36959 ft | 536 kts | 144° |
| 2026-04-17 10:47 | 30.75611 | 70.02530 | 36945 ft | 536 kts | 144° |
| 2026-04-17 10:47 | 30.69793 | 70.07975 | 36948 ft | 536 kts | 144° |
| 2026-04-17 10:48 | 30.64008 | 70.13395 | 36969 ft | 539 kts | 144° |
| 2026-04-17 10:48 | 30.58178 | 70.18861 | 36921 ft | 538 kts | 144° |
| 2026-04-17 10:49 | 30.52356 | 70.24306 | 36894 ft | 537 kts | 144° |
| 2026-04-17 10:49 | 30.46531 | 70.29739 | 36882 ft | 538 kts | 144° |
| 2026-04-17 10:50 | 30.40692 | 70.35169 | 36867 ft | 539 kts | 144° |
| 2026-04-17 10:50 | 30.34837 | 70.40598 | 36860 ft | 538 kts | 144° |
| 2026-04-17 10:51 | 30.28987 | 70.46010 | 36841 ft | 538 kts | 144° |
| 2026-04-17 10:51 | 30.23095 | 70.51385 | 36825 ft | 539 kts | 145° |
| 2026-04-17 10:52 | 30.17232 | 70.56722 | 36808 ft | 540 kts | 143° |
| 2026-04-17 10:52 | 30.11405 | 70.62213 | 36800 ft | 540 kts | 143° |
| 2026-04-17 10:53 | 30.05594 | 70.67712 | 36794 ft | 540 kts | 143° |
| 2026-04-17 10:53 | 30.00759 | 70.72286 | 36795 ft | 541 kts | 143° |
| 2026-04-17 10:54 | 29.94929 | 70.77790 | 36788 ft | 542 kts | 143° |
| 2026-04-17 10:54 | 29.89079 | 70.83299 | 36777 ft | 542 kts | 143° |
| 2026-04-17 10:55 | 29.83233 | 70.88794 | 36777 ft | 542 kts | 143° |
| 2026-04-17 10:55 | 29.77415 | 70.94261 | 36777 ft | 543 kts | 143° |
| 2026-04-17 10:56 | 29.71556 | 70.99773 | 36773 ft | 543 kts | 143° |
| 2026-04-17 10:56 | 29.65732 | 71.05326 | 36765 ft | 543 kts | 141° |
| 2026-04-17 10:57 | 29.60071 | 71.11101 | 36768 ft | 544 kts | 140° |
| 2026-04-17 10:57 | 29.54475 | 71.16904 | 36762 ft | 545 kts | 140° |
| 2026-04-17 10:58 | 29.48851 | 71.22748 | 36756 ft | 545 kts | 140° |
| 2026-04-17 10:58 | 29.43191 | 71.28517 | 36757 ft | 543 kts | 141° |
| 2026-04-17 10:59 | 29.37531 | 71.34245 | 36752 ft | 543 kts | 141° |
| 2026-04-17 10:59 | 29.31855 | 71.39987 | 36758 ft | 544 kts | 141° |
| 2026-04-17 11:00 | 29.26173 | 71.45703 | 36748 ft | 543 kts | 141° |
| 2026-04-17 11:00 | 29.20556 | 71.51378 | 36743 ft | 542 kts | 141° |
| 2026-04-17 11:01 | 29.14960 | 71.57154 | 36747 ft | 543 kts | 140° |
| 2026-04-17 11:01 | 29.09357 | 71.62965 | 36747 ft | 543 kts | 140° |
| 2026-04-17 11:02 | 29.03727 | 71.68708 | 36740 ft | 542 kts | 141° |
| 2026-04-17 11:02 | 28.98101 | 71.74431 | 36743 ft | 541 kts | 141° |
| 2026-04-17 11:03 | 28.92479 | 71.80153 | 36736 ft | 541 kts | 141° |
| 2026-04-17 11:03 | 28.86857 | 71.85879 | 36730 ft | 541 kts | 141° |
| 2026-04-17 11:04 | 28.81216 | 71.91547 | 36728 ft | 540 kts | 141° |
| 2026-04-17 11:04 | 28.75588 | 71.97128 | 36718 ft | 540 kts | 142° |
| 2026-04-17 11:05 | 28.69949 | 72.02796 | 36724 ft | 541 kts | 141° |
| 2026-04-17 11:05 | 28.64339 | 72.08539 | 36730 ft | 541 kts | 141° |
| 2026-04-17 11:06 | 28.58719 | 72.14213 | 36723 ft | 539 kts | 141° |
| 2026-04-17 11:06 | 28.53093 | 72.19855 | 36724 ft | 539 kts | 142° |
| 2026-04-17 11:07 | 28.47757 | 72.25880 | 36724 ft | 546 kts | 126° |
| 2026-04-17 11:07 | 28.46000 | 72.29649 | 36754 ft | 550 kts | 111° |
| 2026-04-17 11:07 | 28.45060 | 72.33859 | 36772 ft | 552 kts | 96° |
| 2026-04-17 11:08 | 28.44644 | 72.42584 | 36746 ft | 554 kts | 92° |
| 2026-04-17 11:08 | 28.44002 | 72.51283 | 36718 ft | 550 kts | 97° |
| 2026-04-17 11:09 | 28.42895 | 72.59884 | 36720 ft | 550 kts | 100° |
| 2026-04-17 11:09 | 28.41603 | 72.68455 | 36722 ft | 551 kts | 100° |
| 2026-04-17 11:10 | 28.39635 | 72.81264 | 36719 ft | 550 kts | 101° |
| 2026-04-17 11:10 | 28.38305 | 72.89803 | 36717 ft | 549 kts | 101° |
| 2026-04-17 11:11 | 28.36906 | 72.98325 | 36721 ft | 549 kts | 101° |
| 2026-04-17 11:11 | 28.35551 | 73.06870 | 36721 ft | 549 kts | 101° |
| 2026-04-17 11:12 | 28.34248 | 73.15419 | 36723 ft | 549 kts | 101° |
| 2026-04-17 11:12 | 28.32953 | 73.23954 | 36727 ft | 548 kts | 101° |
| 2026-04-17 11:13 | 28.31588 | 73.32467 | 36727 ft | 549 kts | 101° |
| 2026-04-17 11:13 | 28.30207 | 73.40981 | 36727 ft | 548 kts | 101° |
| 2026-04-17 11:14 | 28.28834 | 73.49489 | 36733 ft | 548 kts | 102° |
| 2026-04-17 11:14 | 28.27472 | 73.57988 | 36738 ft | 548 kts | 101° |
| 2026-04-17 11:15 | 28.26121 | 73.66452 | 36738 ft | 548 kts | 101° |
| 2026-04-17 11:15 | 28.24770 | 73.74969 | 36745 ft | 548 kts | 101° |
| 2026-04-17 11:16 | 28.23430 | 73.83475 | 36745 ft | 547 kts | 101° |
| 2026-04-17 11:16 | 28.22101 | 73.91971 | 36755 ft | 547 kts | 101° |
| 2026-04-17 11:17 | 28.20727 | 74.00413 | 36756 ft | 548 kts | 102° |
| 2026-04-17 11:17 | 28.19310 | 74.08908 | 36762 ft | 548 kts | 102° |
| 2026-04-17 11:18 | 28.18865 | 74.17503 | 36791 ft | 550 kts | 85° |
| 2026-04-17 11:18 | 28.19717 | 74.26128 | 36778 ft | 552 kts | 83° |
| 2026-04-17 11:19 | 28.20572 | 74.34768 | 36764 ft | 551 kts | 85° |
| 2026-04-17 11:19 | 28.21257 | 74.43411 | 36768 ft | 550 kts | 86° |
| 2026-04-17 11:20 | 28.21872 | 74.52081 | 36775 ft | 552 kts | 86° |
| 2026-04-17 11:20 | 28.22478 | 74.60759 | 36775 ft | 552 kts | 86° |
| 2026-04-17 11:21 | 28.23027 | 74.69443 | 36775 ft | 552 kts | 87° |
| 2026-04-17 11:21 | 28.23528 | 74.78070 | 36780 ft | 552 kts | 87° |
| 2026-04-17 11:22 | 28.24109 | 74.86777 | 36781 ft | 553 kts | 86° |
| 2026-04-17 11:22 | 28.24727 | 74.95483 | 36780 ft | 554 kts | 86° |
| 2026-04-17 11:23 | 28.25312 | 75.04204 | 36788 ft | 554 kts | 87° |
| 2026-04-17 11:23 | 28.25843 | 75.12925 | 36792 ft | 554 kts | 87° |
| 2026-04-17 11:24 | 28.26367 | 75.21644 | 36789 ft | 554 kts | 87° |
| 2026-04-17 11:24 | 28.26893 | 75.30365 | 36792 ft | 554 kts | 87° |
| 2026-04-17 11:25 | 28.27418 | 75.39026 | 36797 ft | 554 kts | 87° |
| 2026-04-17 11:25 | 28.27952 | 75.47747 | 36804 ft | 555 kts | 87° |
| 2026-04-17 11:26 | 28.28492 | 75.56482 | 36810 ft | 555 kts | 87° |
| 2026-04-17 11:26 | 28.29035 | 75.65206 | 36809 ft | 554 kts | 87° |
| 2026-04-17 11:27 | 28.29581 | 75.73917 | 36813 ft | 553 kts | 87° |
| 2026-04-17 11:27 | 28.30128 | 75.82634 | 36820 ft | 554 kts | 87° |
| 2026-04-17 11:28 | 28.30674 | 75.91347 | 36819 ft | 554 kts | 88° |
| 2026-04-17 11:28 | 28.31146 | 76.00081 | 36824 ft | 554 kts | 88° |
| 2026-04-17 11:29 | 28.31594 | 76.08820 | 36818 ft | 554 kts | 88° |
| 2026-04-17 11:29 | 28.32043 | 76.17558 | 36827 ft | 555 kts | 88° |
| 2026-04-17 11:30 | 28.32554 | 76.26250 | 36828 ft | 556 kts | 87° |
| 2026-04-17 11:30 | 28.33105 | 76.35019 | 36830 ft | 556 kts | 88° |
| 2026-04-17 11:31 | 28.33600 | 76.43802 | 36829 ft | 558 kts | 88° |
| 2026-04-17 11:31 | 28.34092 | 76.52612 | 36830 ft | 560 kts | 88° |
| 2026-04-17 11:32 | 28.34577 | 76.61448 | 36826 ft | 561 kts | 89° |
| 2026-04-17 11:32 | 28.34378 | 76.70237 | 36831 ft | 553 kts | 108° |
| 2026-04-17 11:33 | 28.31609 | 76.78293 | 36856 ft | 548 kts | 120° |
| 2026-04-17 11:33 | 28.28442 | 76.86125 | 36833 ft | 550 kts | 119° |
| 2026-04-17 11:34 | 28.25482 | 76.94131 | 36822 ft | 550 kts | 117° |
| 2026-04-17 11:34 | 28.22674 | 77.02224 | 36820 ft | 553 kts | 116° |
| 2026-04-17 11:35 | 28.20121 | 77.09944 | 36812 ft | 555 kts | 115° |
| 2026-04-17 11:35 | 28.17393 | 77.18137 | 36805 ft | 555 kts | 116° |
| 2026-04-17 11:36 | 28.14643 | 77.26332 | 36800 ft | 555 kts | 116° |
| 2026-04-17 11:36 | 28.11837 | 77.34483 | 36803 ft | 556 kts | 117° |
| 2026-04-17 11:37 | 28.09009 | 77.42641 | 36802 ft | 557 kts | 117° |
| 2026-04-17 11:37 | 28.06194 | 77.50781 | 36794 ft | 558 kts | 117° |
| 2026-04-17 11:38 | 28.03375 | 77.58971 | 36793 ft | 558 kts | 117° |
| 2026-04-17 11:38 | 28.00565 | 77.67161 | 36794 ft | 559 kts | 117° |
| 2026-04-17 11:39 | 27.97753 | 77.75378 | 36802 ft | 560 kts | 117° |
| 2026-04-17 11:39 | 27.94945 | 77.83598 | 36796 ft | 560 kts | 117° |
| 2026-04-17 11:40 | 27.92566 | 77.90407 | 36790 ft | 559 kts | 118° |
| 2026-04-17 11:40 | 27.89662 | 77.98573 | 36789 ft | 560 kts | 118° |
| 2026-04-17 11:41 | 27.86782 | 78.06758 | 36788 ft | 561 kts | 117° |
| 2026-04-17 11:41 | 27.83954 | 78.14975 | 36783 ft | 561 kts | 117° |
| 2026-04-17 11:42 | 27.81032 | 78.23138 | 36777 ft | 560 kts | 118° |
| 2026-04-17 11:42 | 27.78025 | 78.31192 | 36778 ft | 560 kts | 119° |
| 2026-04-17 11:43 | 27.74971 | 78.39307 | 36772 ft | 561 kts | 119° |
| 2026-04-17 11:43 | 27.71908 | 78.47419 | 36767 ft | 561 kts | 119° |
| 2026-04-17 11:44 | 27.68845 | 78.55522 | 36769 ft | 562 kts | 119° |
| 2026-04-17 11:44 | 27.65772 | 78.63643 | 36761 ft | 563 kts | 119° |
| 2026-04-17 11:45 | 27.62694 | 78.71771 | 36754 ft | 564 kts | 119° |
| 2026-04-17 11:45 | 27.59614 | 78.79917 | 36753 ft | 565 kts | 119° |
| 2026-04-17 11:46 | 27.56528 | 78.88073 | 36751 ft | 566 kts | 119° |
| 2026-04-17 11:46 | 27.53385 | 78.96156 | 36754 ft | 566 kts | 120° |
| 2026-04-17 11:47 | 27.50220 | 79.04301 | 36755 ft | 567 kts | 119° |
| 2026-04-17 11:47 | 27.47123 | 79.12491 | 36754 ft | 568 kts | 119° |
| 2026-04-17 11:48 | 27.44012 | 79.20661 | 36754 ft | 568 kts | 120° |
| 2026-04-17 11:48 | 27.40835 | 79.28819 | 36754 ft | 569 kts | 120° |
| 2026-04-17 11:49 | 27.37651 | 79.36966 | 36758 ft | 569 kts | 120° |
| 2026-04-17 11:49 | 27.34492 | 79.45128 | 36752 ft | 569 kts | 119° |
| 2026-04-17 11:50 | 27.31385 | 79.53315 | 36763 ft | 569 kts | 120° |
| 2026-04-17 11:50 | 27.28133 | 79.61440 | 36759 ft | 569 kts | 121° |
| 2026-04-17 11:51 | 27.24833 | 79.69528 | 36763 ft | 569 kts | 121° |
| 2026-04-17 11:51 | 27.21529 | 79.77600 | 36758 ft | 568 kts | 121° |
| 2026-04-17 11:52 | 27.18242 | 79.85682 | 36773 ft | 570 kts | 120° |
| 2026-04-17 11:52 | 27.15029 | 79.93776 | 36771 ft | 571 kts | 120° |
| 2026-04-17 11:53 | 27.11783 | 80.01911 | 36770 ft | 570 kts | 120° |
| 2026-04-17 11:53 | 27.08476 | 80.09989 | 36782 ft | 569 kts | 121° |
| 2026-04-17 11:54 | 27.05149 | 80.18061 | 36782 ft | 570 kts | 121° |
| 2026-04-17 11:54 | 27.01817 | 80.26148 | 36778 ft | 571 kts | 120° |
| 2026-04-17 11:55 | 26.98555 | 80.34274 | 36785 ft | 572 kts | 120° |
| 2026-04-17 11:55 | 26.95291 | 80.42395 | 36782 ft | 571 kts | 120° |
| 2026-04-17 11:56 | 26.91955 | 80.50474 | 36784 ft | 571 kts | 121° |
| 2026-04-17 11:56 | 26.88615 | 80.58506 | 36783 ft | 572 kts | 121° |
| 2026-04-17 11:57 | 26.85251 | 80.66578 | 36777 ft | 572 kts | 121° |
| 2026-04-17 11:57 | 26.81925 | 80.74666 | 36772 ft | 572 kts | 120° |
| 2026-04-17 11:58 | 26.78643 | 80.82796 | 36773 ft | 573 kts | 120° |
| 2026-04-17 11:58 | 26.75261 | 80.90861 | 36757 ft | 569 kts | 126° |
| 2026-04-17 11:59 | 26.70781 | 80.98017 | 36785 ft | 558 kts | 134° |
| 2026-04-17 11:59 | 26.66007 | 81.04863 | 36770 ft | 558 kts | 135° |
| 2026-04-17 12:00 | 26.61328 | 81.11741 | 36776 ft | 559 kts | 133° |
| 2026-04-17 12:00 | 26.56725 | 81.18748 | 36777 ft | 559 kts | 133° |
| 2026-04-17 12:01 | 26.52153 | 81.25775 | 36769 ft | 559 kts | 133° |
| 2026-04-17 12:01 | 26.47584 | 81.32801 | 36767 ft | 559 kts | 133° |
| 2026-04-17 12:02 | 26.43010 | 81.39834 | 36767 ft | 559 kts | 133° |
| 2026-04-17 12:02 | 26.38437 | 81.46839 | 36768 ft | 558 kts | 133° |
| 2026-04-17 12:03 | 26.33802 | 81.53775 | 36765 ft | 557 kts | 133° |
| 2026-04-17 12:03 | 26.29171 | 81.60707 | 36763 ft | 557 kts | 133° |
| 2026-04-17 12:04 | 26.24626 | 81.67631 | 36761 ft | 557 kts | 133° |
| 2026-04-17 12:04 | 26.20070 | 81.74596 | 36762 ft | 556 kts | 133° |
| 2026-04-17 12:05 | 26.15511 | 81.81553 | 36763 ft | 556 kts | 133° |
| 2026-04-17 12:05 | 26.10886 | 81.88439 | 36764 ft | 555 kts | 133° |
| 2026-04-17 12:06 | 26.06242 | 81.95307 | 36762 ft | 556 kts | 133° |
| 2026-04-17 12:06 | 26.01645 | 82.02229 | 36757 ft | 555 kts | 132° |
| 2026-04-17 12:07 | 25.97062 | 82.09145 | 36757 ft | 556 kts | 132° |
| 2026-04-17 12:07 | 25.92493 | 82.16018 | 36755 ft | 556 kts | 132° |
| 2026-04-17 12:08 | 25.87895 | 82.22915 | 36748 ft | 555 kts | 132° |
| 2026-04-17 12:08 | 25.83290 | 82.29800 | 36752 ft | 555 kts | 132° |
| 2026-04-17 12:09 | 25.78676 | 82.36676 | 36748 ft | 556 kts | 132° |
| 2026-04-17 12:09 | 25.74042 | 82.43554 | 36746 ft | 557 kts | 132° |
| 2026-04-17 12:10 | 25.69402 | 82.50424 | 36745 ft | 556 kts | 132° |
| 2026-04-17 12:10 | 25.64753 | 82.57283 | 36737 ft | 556 kts | 132° |
| 2026-04-17 12:11 | 25.60093 | 82.64138 | 36740 ft | 557 kts | 132° |
| 2026-04-17 12:12 | 25.53185 | 82.74452 | 36740 ft | 558 kts | 131° |
| 2026-04-17 12:12 | 25.48580 | 82.81357 | 36742 ft | 557 kts | 132° |
| 2026-04-17 12:13 | 25.43873 | 82.88174 | 36738 ft | 556 kts | 134° |
| 2026-04-17 12:13 | 25.38884 | 82.94737 | 36754 ft | 557 kts | 136° |
| 2026-04-17 12:14 | 25.33819 | 83.01221 | 36748 ft | 557 kts | 136° |
| 2026-04-17 12:14 | 25.28740 | 83.07685 | 36748 ft | 557 kts | 136° |
| 2026-04-17 12:15 | 25.23658 | 83.14169 | 36743 ft | 558 kts | 135° |
| 2026-04-17 12:15 | 25.18627 | 83.20712 | 36747 ft | 560 kts | 135° |
| 2026-04-17 12:16 | 25.13634 | 83.27234 | 36750 ft | 560 kts | 135° |
| 2026-04-17 12:16 | 25.08613 | 83.33794 | 36764 ft | 559 kts | 135° |
| 2026-04-17 12:17 | 25.03545 | 83.40300 | 36766 ft | 559 kts | 136° |
| 2026-04-17 12:17 | 24.98438 | 83.46771 | 36772 ft | 560 kts | 136° |
| 2026-04-17 12:18 | 24.93363 | 83.53302 | 36784 ft | 560 kts | 135° |
| 2026-04-17 12:18 | 24.88327 | 83.59858 | 36797 ft | 560 kts | 135° |
| 2026-04-17 12:19 | 24.83266 | 83.66399 | 36774 ft | 560 kts | 136° |
| 2026-04-17 12:19 | 24.78155 | 83.72885 | 36782 ft | 560 kts | 136° |
| 2026-04-17 12:20 | 24.73072 | 83.79324 | 36786 ft | 561 kts | 135° |
| 2026-04-17 12:20 | 24.68005 | 83.85872 | 36788 ft | 562 kts | 135° |
| 2026-04-17 12:21 | 24.62905 | 83.92388 | 36796 ft | 561 kts | 136° |
| 2026-04-17 12:21 | 24.57785 | 83.98850 | 36786 ft | 561 kts | 136° |
| 2026-04-17 12:22 | 24.52657 | 84.05305 | 36780 ft | 560 kts | 136° |
| 2026-04-17 12:22 | 24.47559 | 84.11789 | 36785 ft | 561 kts | 135° |
| 2026-04-17 12:23 | 24.42527 | 84.18285 | 36787 ft | 562 kts | 135° |
| 2026-04-17 12:23 | 24.37418 | 84.24784 | 36786 ft | 561 kts | 136° |
| 2026-04-17 12:24 | 24.32277 | 84.31244 | 36799 ft | 561 kts | 136° |
| 2026-04-17 12:24 | 24.27164 | 84.37650 | 36797 ft | 562 kts | 136° |
| 2026-04-17 12:25 | 24.22018 | 84.44111 | 36804 ft | 563 kts | 135° |
| 2026-04-17 12:25 | 24.16928 | 84.50630 | 36809 ft | 562 kts | 136° |
| 2026-04-17 12:26 | 24.11784 | 84.57084 | 36820 ft | 562 kts | 136° |
| 2026-04-17 12:26 | 24.07500 | 84.62429 | 36823 ft | 562 kts | 136° |
| 2026-04-17 12:27 | 24.02335 | 84.68859 | 36835 ft | 562 kts | 136° |
| 2026-04-17 12:27 | 23.97163 | 84.75285 | 36848 ft | 562 kts | 136° |
| 2026-04-17 12:28 | 23.91991 | 84.81703 | 36843 ft | 562 kts | 136° |
| 2026-04-17 12:28 | 23.86817 | 84.88113 | 36848 ft | 563 kts | 136° |
| 2026-04-17 12:29 | 23.81630 | 84.94527 | 36867 ft | 563 kts | 136° |
| 2026-04-17 12:29 | 23.76441 | 85.00940 | 36873 ft | 563 kts | 136° |
| 2026-04-17 12:30 | 23.71297 | 85.07296 | 36879 ft | 562 kts | 136° |
| 2026-04-17 12:30 | 23.66121 | 85.13685 | 36880 ft | 562 kts | 136° |
| 2026-04-17 12:31 | 23.60945 | 85.20064 | 36886 ft | 561 kts | 136° |
| 2026-04-17 12:31 | 23.55762 | 85.26437 | 36896 ft | 561 kts | 136° |
| 2026-04-17 12:32 | 23.50573 | 85.32803 | 36904 ft | 563 kts | 136° |
| 2026-04-17 12:32 | 23.45358 | 85.39187 | 36912 ft | 563 kts | 136° |
| 2026-04-17 12:33 | 23.40162 | 85.45551 | 36909 ft | 561 kts | 135° |
| 2026-04-17 12:33 | 23.35031 | 85.51961 | 36911 ft | 562 kts | 135° |
| 2026-04-17 12:34 | 23.29869 | 85.58351 | 36906 ft | 563 kts | 136° |
| 2026-04-17 12:34 | 23.24651 | 85.64716 | 36898 ft | 563 kts | 136° |
| 2026-04-17 12:35 | 23.19434 | 85.71055 | 36884 ft | 562 kts | 136° |
| 2026-04-17 12:35 | 23.14215 | 85.77383 | 36883 ft | 563 kts | 136° |
| 2026-04-17 12:37 | 22.93430 | 86.02762 | 36804 ft | 563 kts | 135° |
| 2026-04-17 12:38 | 22.88207 | 86.09082 | 36775 ft | 563 kts | 136° |
| 2026-04-17 12:38 | 22.82963 | 86.15380 | 36773 ft | 562 kts | 136° |
| 2026-04-17 12:39 | 22.78041 | 86.22006 | 36779 ft | 566 kts | 126° |
| 2026-04-17 12:39 | 22.73816 | 86.29222 | 36790 ft | 568 kts | 124° |
| 2026-04-17 12:40 | 22.69619 | 86.36468 | 36806 ft | 566 kts | 125° |
| 2026-04-17 12:40 | 22.65335 | 86.43615 | 36828 ft | 565 kts | 126° |
| 2026-04-17 12:41 | 22.60992 | 86.50636 | 36845 ft | 565 kts | 127° |
| 2026-04-17 12:41 | 22.56587 | 86.57691 | 36842 ft | 565 kts | 127° |
| 2026-04-17 12:42 | 22.52192 | 86.64753 | 36834 ft | 565 kts | 126° |
| 2026-04-17 12:42 | 22.47864 | 86.71852 | 36832 ft | 564 kts | 126° |
| 2026-04-17 12:43 | 22.43552 | 86.78949 | 36827 ft | 564 kts | 126° |
| 2026-04-17 12:43 | 22.39185 | 86.85992 | 36820 ft | 565 kts | 126° |
| 2026-04-17 12:44 | 22.34785 | 86.92972 | 36821 ft | 565 kts | 126° |
| 2026-04-17 12:44 | 22.30412 | 87.00019 | 36818 ft | 565 kts | 126° |
| 2026-04-17 12:45 | 22.26052 | 87.07103 | 36817 ft | 566 kts | 126° |
| 2026-04-17 12:45 | 22.21690 | 87.14186 | 36815 ft | 567 kts | 126° |
| 2026-04-17 12:46 | 22.17317 | 87.21268 | 36811 ft | 566 kts | 126° |
| 2026-04-17 12:46 | 22.12956 | 87.28344 | 36816 ft | 568 kts | 122° |
| 2026-04-17 12:47 | 22.09154 | 87.35820 | 36826 ft | 569 kts | 118° |
| 2026-04-17 12:47 | 22.05536 | 87.43386 | 36820 ft | 567 kts | 118° |
| 2026-04-17 12:48 | 22.01856 | 87.50890 | 36819 ft | 566 kts | 119° |
| 2026-04-17 12:48 | 21.98092 | 87.58333 | 36821 ft | 566 kts | 120° |
| 2026-04-17 12:49 | 21.94297 | 87.65769 | 36822 ft | 565 kts | 120° |
| 2026-04-17 12:49 | 21.90522 | 87.73120 | 36825 ft | 564 kts | 120° |
| 2026-04-17 12:50 | 21.86741 | 87.80519 | 36822 ft | 563 kts | 119° |
| 2026-04-17 12:50 | 21.83019 | 87.87939 | 36825 ft | 563 kts | 118° |
| 2026-04-17 12:51 | 21.79293 | 87.95374 | 36825 ft | 563 kts | 118° |
| 2026-04-17 12:51 | 21.75561 | 88.02719 | 36824 ft | 562 kts | 119° |
| 2026-04-17 12:52 | 21.71741 | 88.10070 | 36824 ft | 561 kts | 120° |
| 2026-04-17 12:52 | 21.67959 | 88.17417 | 36827 ft | 561 kts | 118° |
| 2026-04-17 12:53 | 21.64223 | 88.24789 | 36835 ft | 561 kts | 118° |
| 2026-04-17 12:53 | 21.60516 | 88.32113 | 36827 ft | 561 kts | 118° |
| 2026-04-17 12:54 | 21.56770 | 88.39457 | 36820 ft | 559 kts | 119° |
| 2026-04-17 12:54 | 21.52956 | 88.46745 | 36826 ft | 559 kts | 119° |
| 2026-04-17 12:55 | 21.49165 | 88.54040 | 36831 ft | 560 kts | 118° |
| 2026-04-17 12:55 | 21.45419 | 88.61367 | 36833 ft | 559 kts | 118° |
| 2026-04-17 12:56 | 21.41708 | 88.68638 | 36830 ft | 558 kts | 118° |
| 2026-04-17 12:56 | 21.37951 | 88.75940 | 36830 ft | 559 kts | 119° |
| 2026-04-17 12:57 | 21.33295 | 88.82545 | 36869 ft | 556 kts | 140° |
| 2026-04-17 12:57 | 21.27277 | 88.87735 | 36844 ft | 556 kts | 144° |
| 2026-04-17 12:58 | 21.21237 | 88.92907 | 36828 ft | 555 kts | 142° |
| 2026-04-17 12:58 | 21.15350 | 88.98256 | 36828 ft | 554 kts | 141° |
| 2026-04-17 12:59 | 21.09552 | 89.03692 | 36831 ft | 555 kts | 140° |
| 2026-04-17 12:59 | 21.03817 | 89.09170 | 36834 ft | 556 kts | 140° |
| 2026-04-17 13:00 | 20.98002 | 89.14628 | 36834 ft | 554 kts | 140° |
| 2026-04-17 13:00 | 20.92179 | 89.20041 | 36836 ft | 554 kts | 140° |
| 2026-04-17 13:01 | 20.87121 | 89.26258 | 36868 ft | 557 kts | 126° |
| 2026-04-17 13:01 | 20.82662 | 89.33040 | 36840 ft | 558 kts | 125° |
| 2026-04-17 13:02 | 20.78213 | 89.39763 | 36833 ft | 556 kts | 126° |
| 2026-04-17 13:02 | 20.73629 | 89.46419 | 36838 ft | 556 kts | 127° |
| 2026-04-17 13:03 | 20.68980 | 89.53026 | 36842 ft | 557 kts | 127° |
| 2026-04-17 13:03 | 20.64306 | 89.59637 | 36837 ft | 557 kts | 127° |
| 2026-04-17 13:04 | 20.59626 | 89.66242 | 36840 ft | 556 kts | 127° |
| 2026-04-17 13:04 | 20.54955 | 89.72821 | 36838 ft | 556 kts | 127° |
| 2026-04-17 13:05 | 20.50276 | 89.79398 | 36844 ft | 557 kts | 127° |
| 2026-04-17 13:05 | 20.45643 | 89.85953 | 36854 ft | 556 kts | 127° |
| 2026-04-17 13:06 | 20.41051 | 89.92572 | 36841 ft | 554 kts | 126° |
| 2026-04-17 13:06 | 20.36426 | 89.99161 | 36855 ft | 555 kts | 127° |
| 2026-04-17 13:07 | 20.31751 | 90.05713 | 36857 ft | 555 kts | 127° |
| 2026-04-17 13:07 | 20.27077 | 90.12243 | 36851 ft | 553 kts | 127° |
| 2026-04-17 13:08 | 20.22418 | 90.18747 | 36856 ft | 552 kts | 127° |
| 2026-04-17 13:08 | 20.17771 | 90.25273 | 36860 ft | 552 kts | 127° |
| 2026-04-17 13:09 | 20.13224 | 90.31792 | 36855 ft | 552 kts | 127° |
| 2026-04-17 13:09 | 20.08578 | 90.38358 | 36846 ft | 551 kts | 127° |
| 2026-04-17 13:10 | 20.03968 | 90.44801 | 36858 ft | 551 kts | 127° |
| 2026-04-17 13:10 | 19.99319 | 90.51282 | 36850 ft | 551 kts | 127° |
| 2026-04-17 13:11 | 19.94669 | 90.57763 | 36861 ft | 551 kts | 127° |
| 2026-04-17 13:11 | 19.90018 | 90.64241 | 36860 ft | 551 kts | 127° |
| 2026-04-17 13:12 | 19.85372 | 90.70709 | 36854 ft | 551 kts | 127° |
| 2026-04-17 13:12 | 19.78398 | 90.80413 | 36858 ft | 551 kts | 127° |
| 2026-04-17 13:13 | 19.73744 | 90.86883 | 36854 ft | 551 kts | 127° |
| 2026-04-17 13:13 | 19.69878 | 90.92254 | 36862 ft | 550 kts | 127° |
| 2026-04-17 13:14 | 19.64466 | 90.99768 | 36857 ft | 551 kts | 127° |
| 2026-04-17 13:14 | 19.59809 | 91.06230 | 36863 ft | 551 kts | 127° |
| 2026-04-17 13:15 | 19.55943 | 91.11594 | 36858 ft | 551 kts | 127° |
| 2026-04-17 13:15 | 19.51282 | 91.18056 | 36858 ft | 551 kts | 127° |
| 2026-04-17 13:16 | 19.46624 | 91.24511 | 36855 ft | 551 kts | 127° |
| 2026-04-17 13:16 | 19.41962 | 91.30971 | 36857 ft | 551 kts | 127° |
| 2026-04-17 13:17 | 19.37310 | 91.37416 | 36856 ft | 550 kts | 127° |
| 2026-04-17 13:17 | 19.32688 | 91.43819 | 36862 ft | 550 kts | 127° |
| 2026-04-17 13:18 | 19.28040 | 91.50258 | 36850 ft | 550 kts | 127° |
| 2026-04-17 13:18 | 19.23400 | 91.56688 | 36859 ft | 550 kts | 127° |
| 2026-04-17 13:19 | 19.18763 | 91.63117 | 36858 ft | 549 kts | 127° |
| 2026-04-17 13:19 | 19.14097 | 91.69510 | 36864 ft | 549 kts | 128° |
| 2026-04-17 13:20 | 19.09384 | 91.75858 | 36864 ft | 549 kts | 128° |
| 2026-04-17 13:20 | 19.04710 | 91.82230 | 36863 ft | 548 kts | 127° |
| 2026-04-17 13:21 | 19.00085 | 91.88633 | 36863 ft | 547 kts | 127° |
| 2026-04-17 13:21 | 18.95466 | 91.95032 | 36865 ft | 547 kts | 128° |
| 2026-04-17 13:22 | 18.90801 | 92.01332 | 36863 ft | 547 kts | 128° |
| 2026-04-17 13:22 | 18.86090 | 92.07637 | 36865 ft | 546 kts | 128° |
| 2026-04-17 13:23 | 18.81397 | 92.13942 | 36863 ft | 546 kts | 128° |
| 2026-04-17 13:23 | 18.76697 | 92.20264 | 36864 ft | 547 kts | 128° |
| 2026-04-17 13:24 | 18.72011 | 92.26574 | 36863 ft | 546 kts | 128° |
| 2026-04-17 13:24 | 18.67283 | 92.32840 | 36862 ft | 545 kts | 129° |
| 2026-04-17 13:25 | 18.62522 | 92.39068 | 36857 ft | 546 kts | 129° |
| 2026-04-17 13:25 | 18.57812 | 92.45340 | 36861 ft | 546 kts | 128° |
| 2026-04-17 13:26 | 18.53134 | 92.51647 | 36868 ft | 545 kts | 128° |
| 2026-04-17 13:26 | 18.48460 | 92.57934 | 36868 ft | 545 kts | 129° |
| 2026-04-17 13:27 | 18.43724 | 92.64172 | 36868 ft | 545 kts | 129° |
| 2026-04-17 13:27 | 18.38997 | 92.70367 | 36863 ft | 545 kts | 129° |
| 2026-04-17 13:28 | 18.34222 | 92.76632 | 36864 ft | 545 kts | 129° |
| 2026-04-17 13:28 | 18.29547 | 92.82903 | 36865 ft | 544 kts | 128° |
| 2026-04-17 13:29 | 18.24913 | 92.89136 | 36863 ft | 545 kts | 129° |
| 2026-04-17 13:29 | 18.20187 | 92.95367 | 36866 ft | 545 kts | 129° |
| 2026-04-17 13:30 | 18.15446 | 93.01586 | 36867 ft | 544 kts | 129° |
| 2026-04-17 13:30 | 18.10704 | 93.07798 | 36860 ft | 544 kts | 129° |
| 2026-04-17 13:31 | 18.05966 | 93.14004 | 36867 ft | 544 kts | 129° |
| 2026-04-17 13:31 | 18.01222 | 93.20216 | 36866 ft | 544 kts | 129° |
| 2026-04-17 13:32 | 17.96496 | 93.26423 | 36869 ft | 544 kts | 129° |
| 2026-04-17 13:32 | 17.91835 | 93.32686 | 36865 ft | 544 kts | 128° |
| 2026-04-17 13:33 | 17.87142 | 93.38909 | 36865 ft | 544 kts | 129° |
| 2026-04-17 13:33 | 17.82414 | 93.45114 | 36868 ft | 544 kts | 129° |
| 2026-04-17 13:34 | 17.77717 | 93.51269 | 36864 ft | 543 kts | 129° |
| 2026-04-17 13:34 | 17.72991 | 93.57464 | 36870 ft | 543 kts | 129° |
| 2026-04-17 13:35 | 17.68273 | 93.63651 | 36876 ft | 543 kts | 129° |
| 2026-04-17 13:35 | 17.63552 | 93.69845 | 36869 ft | 543 kts | 129° |
| 2026-04-17 13:36 | 17.58835 | 93.76033 | 36873 ft | 543 kts | 129° |
| 2026-04-17 13:36 | 17.54123 | 93.82219 | 36870 ft | 542 kts | 129° |
| 2026-04-17 13:37 | 17.49373 | 93.88351 | 36867 ft | 543 kts | 130° |
| 2026-04-17 13:37 | 17.44584 | 93.94463 | 36869 ft | 542 kts | 130° |
| 2026-04-17 13:38 | 17.39863 | 94.00613 | 36868 ft | 541 kts | 129° |
| 2026-04-17 13:38 | 17.35167 | 94.06784 | 36871 ft | 541 kts | 129° |
| 2026-04-17 13:39 | 17.30475 | 94.12951 | 36869 ft | 541 kts | 129° |
| 2026-04-17 13:39 | 17.25727 | 94.19061 | 36868 ft | 541 kts | 130° |
| 2026-04-17 13:40 | 17.20958 | 94.25151 | 36870 ft | 541 kts | 130° |
| 2026-04-17 13:40 | 17.16206 | 94.31243 | 36871 ft | 541 kts | 129° |
| 2026-04-17 13:41 | 17.11541 | 94.37356 | 36867 ft | 540 kts | 129° |
| 2026-04-17 13:41 | 17.06860 | 94.43496 | 36867 ft | 540 kts | 130° |
| 2026-04-17 13:42 | 17.02119 | 94.49591 | 36875 ft | 540 kts | 130° |
| 2026-04-17 13:42 | 16.97365 | 94.55673 | 36870 ft | 540 kts | 130° |
| 2026-04-17 13:43 | 16.92611 | 94.61750 | 36866 ft | 539 kts | 130° |
| 2026-04-17 13:43 | 16.87892 | 94.67781 | 36863 ft | 539 kts | 130° |
| 2026-04-17 13:44 | 16.83135 | 94.73910 | 36866 ft | 540 kts | 129° |
| 2026-04-17 13:44 | 16.78761 | 94.80222 | 36864 ft | 540 kts | 119° |
| 2026-04-17 13:45 | 16.75428 | 94.87243 | 36864 ft | 541 kts | 115° |
| 2026-04-17 13:45 | 16.72224 | 94.94353 | 36857 ft | 541 kts | 116° |
| 2026-04-17 13:46 | 16.68896 | 95.01397 | 36856 ft | 541 kts | 117° |
| 2026-04-17 13:46 | 16.65460 | 95.08378 | 36857 ft | 540 kts | 118° |
| 2026-04-17 13:47 | 16.61977 | 95.15322 | 36857 ft | 541 kts | 118° |
| 2026-04-17 13:47 | 16.58476 | 95.22281 | 36859 ft | 541 kts | 118° |
| 2026-04-17 13:48 | 16.55062 | 95.29220 | 36852 ft | 541 kts | 117° |
| 2026-04-17 13:48 | 16.51671 | 95.36218 | 36853 ft | 541 kts | 117° |
| 2026-04-17 13:49 | 16.48215 | 95.43209 | 36853 ft | 542 kts | 118° |
| 2026-04-17 13:49 | 16.44718 | 95.50183 | 36848 ft | 543 kts | 118° |
| 2026-04-17 13:50 | 16.41215 | 95.57152 | 36850 ft | 543 kts | 118° |
| 2026-04-17 13:50 | 16.37712 | 95.64119 | 36854 ft | 542 kts | 118° |
| 2026-04-17 13:51 | 16.34258 | 95.71097 | 36855 ft | 543 kts | 117° |
| 2026-04-17 13:51 | 16.30845 | 95.78117 | 36855 ft | 543 kts | 117° |
| 2026-04-17 13:52 | 16.27370 | 95.85109 | 36854 ft | 544 kts | 118° |
| 2026-04-17 13:52 | 16.23881 | 95.92084 | 36852 ft | 543 kts | 118° |
| 2026-04-17 13:53 | 16.20411 | 95.99016 | 36853 ft | 544 kts | 118° |
| 2026-04-17 13:53 | 16.16920 | 96.06000 | 36853 ft | 544 kts | 118° |
| 2026-04-17 13:54 | 16.11691 | 96.16480 | 36851 ft | 544 kts | 118° |
| 2026-04-17 13:55 | 16.06462 | 96.26976 | 36857 ft | 544 kts | 118° |
| 2026-04-17 13:56 | 15.99432 | 96.40880 | 36855 ft | 545 kts | 119° |
| 2026-04-17 13:56 | 15.95866 | 96.47826 | 36856 ft | 544 kts | 118° |
| 2026-04-17 13:57 | 15.92377 | 96.54804 | 36801 ft | 545 kts | 118° |
| 2026-04-17 13:57 | 15.88900 | 96.61816 | 36179 ft | 541 kts | 118° |
| 2026-04-17 13:58 | 15.87173 | 96.65278 | 35887 ft | 538 kts | 118° |
| 2026-04-17 13:58 | 15.83704 | 96.72104 | 35311 ft | 532 kts | 119° |
| 2026-04-17 13:58 | 15.82557 | 96.74351 | 35141 ft | 530 kts | 119° |
| 2026-04-17 13:59 | 15.79113 | 96.81104 | 34583 ft | 527 kts | 119° |
| 2026-04-17 13:59 | 15.77405 | 96.84461 | 34313 ft | 525 kts | 119° |
| 2026-04-17 13:59 | 15.75705 | 96.87809 | 34046 ft | 524 kts | 119° |
| 2026-04-17 14:00 | 15.74013 | 96.91146 | 33768 ft | 521 kts | 119° |
| 2026-04-17 14:00 | 15.72333 | 96.94469 | 33457 ft | 519 kts | 119° |
| 2026-04-17 14:00 | 15.70665 | 96.97764 | 33154 ft | 514 kts | 119° |
| 2026-04-17 14:00 | 15.46443 | 97.44875 | 32855 ft | 512 kts | 119° |
| 2026-04-17 14:01 | 15.44862 | 97.48164 | 32543 ft | 509 kts | 116° |
| 2026-04-17 14:01 | 15.43426 | 97.51510 | 32254 ft | 506 kts | 115° |
| 2026-04-17 14:01 | 15.41941 | 97.54797 | 31956 ft | 502 kts | 117° |
| 2026-04-17 14:01 | 15.40421 | 97.57996 | 31680 ft | 500 kts | 118° |
| 2026-04-17 14:02 | 15.38867 | 97.61204 | 31395 ft | 496 kts | 118° |
| 2026-04-17 14:02 | 15.37308 | 97.64389 | 31112 ft | 494 kts | 118° |
| 2026-04-17 14:02 | 15.35755 | 97.67547 | 30839 ft | 490 kts | 118° |
| 2026-04-17 14:02 | 15.34206 | 97.70682 | 30553 ft | 487 kts | 118° |
| 2026-04-17 14:03 | 15.32663 | 97.73797 | 30291 ft | 485 kts | 118° |
| 2026-04-17 14:03 | 15.31124 | 97.76893 | 30033 ft | 482 kts | 118° |
| 2026-04-17 14:03 | 15.29605 | 97.79988 | 29730 ft | 481 kts | 117° |
| 2026-04-17 14:03 | 15.28108 | 97.83076 | 29411 ft | 477 kts | 117° |
| 2026-04-17 14:04 | 15.26629 | 97.86142 | 29099 ft | 475 kts | 117° |
| 2026-04-17 14:04 | 15.25157 | 97.89191 | 28783 ft | 472 kts | 117° |
| 2026-04-17 14:04 | 15.23693 | 97.92221 | 28460 ft | 469 kts | 117° |
| 2026-04-17 14:04 | 15.22234 | 97.95236 | 28159 ft | 467 kts | 117° |
| 2026-04-17 14:05 | 15.20779 | 97.98238 | 27855 ft | 465 kts | 117° |
| 2026-04-17 14:05 | 15.19331 | 98.01218 | 27558 ft | 462 kts | 117° |
| 2026-04-17 14:05 | 15.17887 | 98.04185 | 27267 ft | 460 kts | 117° |
| 2026-04-17 14:05 | 15.16451 | 98.07127 | 26976 ft | 457 kts | 117° |
| 2026-04-17 14:06 | 15.15017 | 98.10057 | 26695 ft | 455 kts | 117° |
| 2026-04-17 14:06 | 15.13590 | 98.12965 | 26403 ft | 452 kts | 117° |
| 2026-04-17 14:06 | 15.12170 | 98.15869 | 25993 ft | 452 kts | 117° |
| 2026-04-17 14:06 | 15.10771 | 98.18775 | 25537 ft | 449 kts | 116° |
| 2026-04-17 14:07 | 15.09424 | 98.21644 | 25394 ft | 438 kts | 116° |
| 2026-04-17 14:07 | 14.97858 | 98.46722 | 25261 ft | 438 kts | 120° |
| 2026-04-17 14:07 | 14.96307 | 98.49459 | 24944 ft | 443 kts | 121° |
| 2026-04-17 14:07 | 14.94712 | 98.52183 | 24570 ft | 440 kts | 121° |
| 2026-04-17 14:08 | 14.93154 | 98.54885 | 24192 ft | 435 kts | 120° |
| 2026-04-17 14:08 | 14.91654 | 98.57582 | 23823 ft | 431 kts | 119° |
| 2026-04-17 14:08 | 14.90202 | 98.60287 | 23457 ft | 429 kts | 118° |
| 2026-04-17 14:08 | 14.88796 | 98.62994 | 23020 ft | 427 kts | 117° |
| 2026-04-17 14:09 | 14.87408 | 98.65703 | 22594 ft | 424 kts | 117° |
| 2026-04-17 14:09 | 14.86045 | 98.68398 | 22171 ft | 421 kts | 117° |
| 2026-04-17 14:09 | 14.84715 | 98.71081 | 21729 ft | 418 kts | 116° |
| 2026-04-17 14:09 | 14.83402 | 98.73757 | 21326 ft | 415 kts | 116° |
| 2026-04-17 14:10 | 14.82103 | 98.76410 | 20913 ft | 413 kts | 116° |
| 2026-04-17 14:10 | 14.80809 | 98.79048 | 20503 ft | 410 kts | 116° |
| 2026-04-17 14:10 | 14.79523 | 98.81667 | 20112 ft | 407 kts | 116° |
| 2026-04-17 14:10 | 14.78223 | 98.84259 | 19708 ft | 405 kts | 117° |
| 2026-04-17 14:11 | 14.76918 | 98.86828 | 19331 ft | 403 kts | 117° |
| 2026-04-17 14:11 | 14.75615 | 98.89374 | 18943 ft | 400 kts | 117° |
| 2026-04-17 14:11 | 14.74328 | 98.91916 | 18570 ft | 397 kts | 116° |
| 2026-04-17 14:11 | 14.73083 | 98.94410 | 18269 ft | 393 kts | 116° |
| 2026-04-17 14:12 | 14.71838 | 98.96917 | 18068 ft | 390 kts | 116° |
| 2026-04-17 14:12 | 14.70603 | 98.99405 | 17985 ft | 389 kts | 116° |
| 2026-04-17 14:12 | 14.69365 | 99.01899 | 17938 ft | 391 kts | 116° |
| 2026-04-17 14:13 | 14.66918 | 99.06930 | 17908 ft | 391 kts | 114° |
| 2026-04-17 14:13 | 14.65803 | 99.09488 | 17911 ft | 391 kts | 113° |
| 2026-04-17 14:13 | 14.64715 | 99.12065 | 17766 ft | 394 kts | 112° |
| 2026-04-17 14:13 | 14.63633 | 99.14663 | 17350 ft | 392 kts | 112° |
| 2026-04-17 14:14 | 14.62568 | 99.17242 | 16931 ft | 387 kts | 112° |
| 2026-04-17 14:14 | 14.61531 | 99.19754 | 16514 ft | 383 kts | 112° |
| 2026-04-17 14:14 | 14.60493 | 99.22276 | 16105 ft | 379 kts | 112° |
| 2026-04-17 14:14 | 14.59468 | 99.24772 | 15710 ft | 376 kts | 112° |
| 2026-04-17 14:15 | 14.58449 | 99.27246 | 15305 ft | 372 kts | 112° |
| 2026-04-17 14:15 | 14.57434 | 99.29689 | 14909 ft | 369 kts | 112° |
| 2026-04-17 14:15 | 14.56421 | 99.32108 | 14520 ft | 366 kts | 113° |
| 2026-04-17 14:15 | 14.55411 | 99.34502 | 14141 ft | 363 kts | 113° |
| 2026-04-17 14:16 | 14.54406 | 99.36879 | 13757 ft | 360 kts | 113° |
| 2026-04-17 14:16 | 14.53408 | 99.39239 | 13340 ft | 357 kts | 113° |
| 2026-04-17 14:16 | 14.52422 | 99.41584 | 12928 ft | 355 kts | 112° |
| 2026-04-17 14:16 | 14.51463 | 99.43893 | 12511 ft | 353 kts | 112° |
| 2026-04-17 14:17 | 14.50504 | 99.46215 | 12101 ft | 351 kts | 112° |
| 2026-04-17 14:17 | 14.49548 | 99.48534 | 11695 ft | 351 kts | 112° |
| 2026-04-17 14:17 | 14.48595 | 99.50847 | 11286 ft | 349 kts | 112° |
| 2026-04-17 14:17 | 14.47647 | 99.53147 | 10893 ft | 347 kts | 112° |
| 2026-04-17 14:18 | 14.46704 | 99.55437 | 10506 ft | 346 kts | 112° |
| 2026-04-17 14:18 | 14.45763 | 99.57714 | 10094 ft | 344 kts | 112° |
| 2026-04-17 14:18 | 14.44824 | 99.59982 | 9721 ft | 343 kts | 112° |
| 2026-04-17 14:18 | 14.43891 | 99.62240 | 9300 ft | 342 kts | 112° |
| 2026-04-17 14:19 | 14.42955 | 99.64497 | 8894 ft | 340 kts | 112° |
| 2026-04-17 14:19 | 14.42028 | 99.66716 | 8642 ft | 334 kts | 113° |
| 2026-04-17 14:19 | 14.41112 | 99.68889 | 8448 ft | 326 kts | 113° |
| 2026-04-17 14:19 | 14.40232 | 99.70982 | 8250 ft | 319 kts | 113° |
| 2026-04-17 14:20 | 14.39358 | 99.73059 | 8091 ft | 311 kts | 113° |
| 2026-04-17 14:20 | 14.38510 | 99.75079 | 7982 ft | 303 kts | 113° |
| 2026-04-17 14:20 | 14.37684 | 99.77048 | 7887 ft | 296 kts | 113° |
| 2026-04-17 14:20 | 14.36879 | 99.78974 | 7780 ft | 290 kts | 113° |
| 2026-04-17 14:21 | 14.36084 | 99.80875 | 7687 ft | 288 kts | 113° |
| 2026-04-17 14:21 | 14.35296 | 99.82766 | 7598 ft | 287 kts | 113° |
| 2026-04-17 14:21 | 14.34507 | 99.84659 | 7493 ft | 287 kts | 113° |
| 2026-04-17 14:21 | 14.33721 | 99.86551 | 7399 ft | 287 kts | 113° |
| 2026-04-17 14:22 | 14.32933 | 99.88444 | 7329 ft | 287 kts | 113° |
| 2026-04-17 14:22 | 14.32150 | 99.90330 | 7227 ft | 284 kts | 113° |
| 2026-04-17 14:22 | 14.31382 | 99.92180 | 7129 ft | 277 kts | 113° |
| 2026-04-17 14:22 | 14.30631 | 99.93992 | 7038 ft | 272 kts | 113° |
| 2026-04-17 14:23 | 14.29905 | 99.95746 | 6939 ft | 266 kts | 113° |
| 2026-04-17 14:23 | 14.29184 | 99.97487 | 6845 ft | 262 kts | 113° |
| 2026-04-17 14:23 | 14.28476 | 99.99201 | 6748 ft | 257 kts | 113° |
| 2026-04-17 14:23 | 14.27778 | 100.00880 | 6649 ft | 252 kts | 113° |
| 2026-04-17 14:24 | 14.27089 | 100.02530 | 6566 ft | 250 kts | 113° |
| 2026-04-17 14:24 | 14.26403 | 100.04176 | 6502 ft | 250 kts | 113° |
| 2026-04-17 14:24 | 14.25714 | 100.05832 | 6456 ft | 252 kts | 113° |
| 2026-04-17 14:24 | 14.25023 | 100.07491 | 6410 ft | 252 kts | 113° |
| 2026-04-17 14:25 | 14.24333 | 100.09149 | 6335 ft | 251 kts | 113° |
| 2026-04-17 14:25 | 14.23647 | 100.10804 | 6273 ft | 251 kts | 113° |
| 2026-04-17 14:25 | 14.22960 | 100.12458 | 6212 ft | 250 kts | 113° |
| 2026-04-17 14:25 | 14.22274 | 100.14083 | 6250 ft | 247 kts | 114° |
| 2026-04-17 14:26 | 14.21587 | 100.15720 | 6229 ft | 250 kts | 114° |
| 2026-04-17 14:26 | 14.20894 | 100.17363 | 6177 ft | 250 kts | 114° |
| 2026-04-17 14:26 | 14.20196 | 100.19001 | 6142 ft | 249 kts | 114° |
| 2026-04-17 14:26 | 14.19495 | 100.20630 | 6107 ft | 248 kts | 114° |
| 2026-04-17 14:27 | 14.18796 | 100.22256 | 6044 ft | 248 kts | 114° |
| 2026-04-17 14:27 | 14.18097 | 100.23883 | 5979 ft | 249 kts | 114° |
| 2026-04-17 14:27 | 14.17398 | 100.25513 | 5905 ft | 248 kts | 114° |
| 2026-04-17 14:27 | 14.16704 | 100.27132 | 5829 ft | 247 kts | 114° |
| 2026-04-17 14:28 | 14.16012 | 100.28748 | 5765 ft | 246 kts | 114° |
| 2026-04-17 14:28 | 14.15331 | 100.30347 | 5693 ft | 246 kts | 114° |
| 2026-04-17 14:28 | 14.14644 | 100.31967 | 5627 ft | 246 kts | 114° |
| 2026-04-17 14:28 | 14.13961 | 100.33579 | 5529 ft | 245 kts | 114° |
| 2026-04-17 14:29 | 14.13280 | 100.35191 | 5422 ft | 245 kts | 114° |
| 2026-04-17 14:29 | 14.12602 | 100.36800 | 5328 ft | 244 kts | 114° |
| 2026-04-17 14:29 | 14.11928 | 100.38405 | 5234 ft | 243 kts | 114° |
| 2026-04-17 14:29 | 14.11258 | 100.40000 | 5125 ft | 243 kts | 114° |
| 2026-04-17 14:30 | 14.10589 | 100.41595 | 5028 ft | 243 kts | 114° |
| 2026-04-17 14:30 | 14.09921 | 100.43187 | 4926 ft | 242 kts | 114° |
| 2026-04-17 14:30 | 14.09257 | 100.44772 | 4841 ft | 240 kts | 114° |
| 2026-04-17 14:30 | 14.08603 | 100.46332 | 4739 ft | 240 kts | 114° |
| 2026-04-17 14:31 | 14.07940 | 100.47911 | 4653 ft | 239 kts | 114° |
| 2026-04-17 14:31 | 14.07281 | 100.49480 | 4561 ft | 238 kts | 114° |
| 2026-04-17 14:31 | 14.06622 | 100.51043 | 4455 ft | 238 kts | 115° |
| 2026-04-17 14:31 | 14.05964 | 100.52599 | 4358 ft | 236 kts | 115° |
| 2026-04-17 14:32 | 14.05306 | 100.54148 | 4262 ft | 236 kts | 115° |
| 2026-04-17 14:32 | 14.04647 | 100.55700 | 4163 ft | 236 kts | 115° |
| 2026-04-17 14:32 | 14.03987 | 100.57246 | 4105 ft | 235 kts | 115° |
| 2026-04-17 14:32 | 14.03331 | 100.58779 | 4060 ft | 233 kts | 115° |
| 2026-04-17 14:33 | 14.02678 | 100.60308 | 4032 ft | 230 kts | 115° |
| 2026-04-17 14:33 | 14.02046 | 100.61786 | 4004 ft | 221 kts | 115° |
| 2026-04-17 14:33 | 14.01434 | 100.63217 | 4008 ft | 213 kts | 115° |
| 2026-04-17 14:33 | 14.00844 | 100.64602 | 4006 ft | 211 kts | 115° |
| 2026-04-17 14:34 | 14.00273 | 100.65950 | 3988 ft | 198 kts | 115° |
| 2026-04-17 14:34 | 13.99739 | 100.67204 | 3986 ft | 191 kts | 115° |
| 2026-04-17 14:34 | 13.99204 | 100.68465 | 4002 ft | 192 kts | 115° |
| 2026-04-17 14:34 | 13.98670 | 100.69725 | 4008 ft | 193 kts | 115° |
| 2026-04-17 14:35 | 13.98137 | 100.70983 | 4019 ft | 190 kts | 115° |
| 2026-04-17 14:35 | 13.97634 | 100.72174 | 4000 ft | 171 kts | 115° |
| 2026-04-17 14:35 | 13.97159 | 100.73300 | 3995 ft | 171 kts | 115° |
| 2026-04-17 14:35 | 13.96682 | 100.74423 | 4000 ft | 172 kts | 115° |
| 2026-04-17 14:36 | 13.96110 | 100.75578 | 4026 ft | 202 kts | 129° |
| 2026-04-17 14:36 | 13.95618 | 100.76038 | 4038 ft | 220 kts | 147° |
| 2026-04-17 14:36 | 13.94362 | 100.76777 | 4000 ft | 190 kts | 141° |
| 2026-04-17 14:36 | 13.93582 | 100.77763 | 3967 ft | 173 kts | 128° |
| 2026-04-17 14:37 | 13.92859 | 100.78758 | 3990 ft | 172 kts | 128° |
| 2026-04-17 14:37 | 13.92010 | 100.79676 | 3989 ft | 176 kts | 152° |
| 2026-04-17 14:37 | 13.90861 | 100.79824 | 3991 ft | 170 kts | 189° |
| 2026-04-17 14:37 | 13.89704 | 100.79588 | 4032 ft | 173 kts | 191° |
| 2026-04-17 14:38 | 13.88534 | 100.79304 | 3833 ft | 176 kts | 193° |
| 2026-04-17 14:38 | 13.87365 | 100.79007 | 3658 ft | 170 kts | 194° |
| 2026-04-17 14:38 | 13.86233 | 100.78687 | 3441 ft | 169 kts | 194° |
| 2026-04-17 14:38 | 13.85113 | 100.78364 | 3227 ft | 166 kts | 195° |
| 2026-04-17 14:39 | 13.84015 | 100.78043 | 2991 ft | 162 kts | 195° |
| 2026-04-17 14:39 | 13.82924 | 100.77745 | 2780 ft | 163 kts | 193° |
| 2026-04-17 14:39 | 13.81835 | 100.77459 | 2536 ft | 160 kts | 193° |
| 2026-04-17 14:39 | 13.80775 | 100.77167 | 2364 ft | 157 kts | 192° |
| 2026-04-17 14:40 | 13.79720 | 100.76891 | 2200 ft | 152 kts | 194° |
| 2026-04-17 14:40 | 13.78710 | 100.76607 | 1903 ft | 148 kts | 193° |
| 2026-04-17 14:40 | 13.77735 | 100.76322 | 1714 ft | 147 kts | 193° |
| 2026-04-17 14:40 | 13.76752 | 100.76051 | 1516 ft | 147 kts | 193° |
| 2026-04-17 14:41 | 13.75760 | 100.75784 | 1340 ft | 149 kts | 193° |
| 2026-04-17 14:41 | 13.74916 | 100.75566 | 1129 ft | 152 kts | 194° |
| 2026-04-17 14:41 | 13.73899 | 100.75285 | 904 ft | 150 kts | 194° |